<?xml version="1.0" encoding="utf-8"?>
<gpx xmlns:xsi="http://www.w3.org/2001/XMLSchema-instance" xmlns:xsd="http://www.w3.org/2001/XMLSchema" version="1.1" creator="Shapelink.com" xmlns="http://www.topografix.com/GPX/1/1" xmlns:gpxtpx="http://www.garmin.com/xmlschemas/TrackPointExtension/v1">
  <metadata>
    <name>Gåing 10.61 km, 2012-03-21</name>
    <desc></desc>
    <author><name>Mikael Blom</name></author> 
    <time>2012-03-21T14:26:08Z</time>
  </metadata>
  <trk>
    <name>Gåing 10.61 km, 2012-03-21</name>
    <trkseg>
      <trkpt lat="59.9789962" lon="17.7397832">
        <ele>40.5128</ele>
        <time>2012-03-21T14:26:08Z</time>
      </trkpt>
      <trkpt lat="59.979037" lon="17.7396708">
        <ele>40.0321</ele>
        <time>2012-03-21T14:26:15Z</time>
      </trkpt>
      <trkpt lat="59.9790133" lon="17.7395575">
        <ele>39.0707</ele>
        <time>2012-03-21T14:26:21Z</time>
      </trkpt>
      <trkpt lat="59.9790045" lon="17.7395368">
        <ele>39.0707</ele>
        <time>2012-03-21T14:26:22Z</time>
      </trkpt>
      <trkpt lat="59.9789082" lon="17.7393834">
        <ele>38.1094</ele>
        <time>2012-03-21T14:26:32Z</time>
      </trkpt>
      <trkpt lat="59.9788957" lon="17.73938">
        <ele>38.1094</ele>
        <time>2012-03-21T14:26:33Z</time>
      </trkpt>
      <trkpt lat="59.978805" lon="17.7393801">
        <ele>37.6287</ele>
        <time>2012-03-21T14:26:39Z</time>
      </trkpt>
      <trkpt lat="59.9787909" lon="17.7393722">
        <ele>37.6287</ele>
        <time>2012-03-21T14:26:40Z</time>
      </trkpt>
      <trkpt lat="59.9786857" lon="17.7393719">
        <ele>37.6287</ele>
        <time>2012-03-21T14:26:47Z</time>
      </trkpt>
      <trkpt lat="59.9785988" lon="17.7393719">
        <ele>39.0707</ele>
        <time>2012-03-21T14:26:52Z</time>
      </trkpt>
      <trkpt lat="59.9785201" lon="17.739338">
        <ele>40.9934</ele>
        <time>2012-03-21T14:26:58Z</time>
      </trkpt>
      <trkpt lat="59.9783953" lon="17.7393102">
        <ele>41.9547</ele>
        <time>2012-03-21T14:27:07Z</time>
      </trkpt>
      <trkpt lat="59.97838" lon="17.7393052">
        <ele>41.9547</ele>
        <time>2012-03-21T14:27:08Z</time>
      </trkpt>
      <trkpt lat="59.9782858" lon="17.7392922">
        <ele>40.9934</ele>
        <time>2012-03-21T14:27:14Z</time>
      </trkpt>
      <trkpt lat="59.978234" lon="17.7392635">
        <ele>40.9934</ele>
        <time>2012-03-21T14:27:18Z</time>
      </trkpt>
      <trkpt lat="59.9781906" lon="17.7392704">
        <ele>41.9547</ele>
        <time>2012-03-21T14:27:21Z</time>
      </trkpt>
      <trkpt lat="59.9781083" lon="17.7392573">
        <ele>40.5128</ele>
        <time>2012-03-21T14:27:27Z</time>
      </trkpt>
      <trkpt lat="59.978016" lon="17.739208">
        <ele>39.5513</ele>
        <time>2012-03-21T14:27:34Z</time>
      </trkpt>
      <trkpt lat="59.977971" lon="17.7391704">
        <ele>39.0707</ele>
        <time>2012-03-21T14:27:38Z</time>
      </trkpt>
      <trkpt lat="59.9778793" lon="17.7391462">
        <ele>39.5513</ele>
        <time>2012-03-21T14:27:45Z</time>
      </trkpt>
      <trkpt lat="59.9777985" lon="17.7391094">
        <ele>40.0321</ele>
        <time>2012-03-21T14:27:52Z</time>
      </trkpt>
      <trkpt lat="59.9777312" lon="17.7391035">
        <ele>40.5128</ele>
        <time>2012-03-21T14:27:57Z</time>
      </trkpt>
      <trkpt lat="59.9776442" lon="17.7390887">
        <ele>40.5128</ele>
        <time>2012-03-21T14:28:04Z</time>
      </trkpt>
      <trkpt lat="59.9775494" lon="17.7391241">
        <ele>39.5513</ele>
        <time>2012-03-21T14:28:10Z</time>
      </trkpt>
      <trkpt lat="59.9774972" lon="17.7391502">
        <ele>38.5901</ele>
        <time>2012-03-21T14:28:14Z</time>
      </trkpt>
      <trkpt lat="59.9774316" lon="17.7391984">
        <ele>37.1481</ele>
        <time>2012-03-21T14:28:19Z</time>
      </trkpt>
      <trkpt lat="59.977351" lon="17.7392474">
        <ele>35.2255</ele>
        <time>2012-03-21T14:28:24Z</time>
      </trkpt>
      <trkpt lat="59.977336" lon="17.7392501">
        <ele>34.7449</ele>
        <time>2012-03-21T14:28:25Z</time>
      </trkpt>
      <trkpt lat="59.9773218" lon="17.7392424">
        <ele>34.2642</ele>
        <time>2012-03-21T14:28:27Z</time>
      </trkpt>
      <trkpt lat="59.9772927" lon="17.7392543">
        <ele>32.3416</ele>
        <time>2012-03-21T14:28:31Z</time>
      </trkpt>
      <trkpt lat="59.977269" lon="17.7392736">
        <ele>31.8607</ele>
        <time>2012-03-21T14:28:33Z</time>
      </trkpt>
      <trkpt lat="59.977256" lon="17.7392915">
        <ele>31.3801</ele>
        <time>2012-03-21T14:28:34Z</time>
      </trkpt>
      <trkpt lat="59.9771945" lon="17.7393583">
        <ele>29.4575</ele>
        <time>2012-03-21T14:28:38Z</time>
      </trkpt>
      <trkpt lat="59.9771366" lon="17.7394345">
        <ele>28.0155</ele>
        <time>2012-03-21T14:28:43Z</time>
      </trkpt>
      <trkpt lat="59.9770918" lon="17.7394862">
        <ele>27.5349</ele>
        <time>2012-03-21T14:28:46Z</time>
      </trkpt>
      <trkpt lat="59.9770484" lon="17.7394919">
        <ele>26.0929</ele>
        <time>2012-03-21T14:28:49Z</time>
      </trkpt>
      <trkpt lat="59.9770267" lon="17.7394819">
        <ele>26.5736</ele>
        <time>2012-03-21T14:28:51Z</time>
      </trkpt>
      <trkpt lat="59.976938" lon="17.739501">
        <ele>25.6123</ele>
        <time>2012-03-21T14:28:57Z</time>
      </trkpt>
      <trkpt lat="59.9768721" lon="17.7395775">
        <ele>24.651</ele>
        <time>2012-03-21T14:29:01Z</time>
      </trkpt>
      <trkpt lat="59.9768598" lon="17.7396005">
        <ele>23.6896</ele>
        <time>2012-03-21T14:29:02Z</time>
      </trkpt>
      <trkpt lat="59.9767661" lon="17.7395957">
        <ele>27.0543</ele>
        <time>2012-03-21T14:29:09Z</time>
      </trkpt>
      <trkpt lat="59.9767525" lon="17.7396024">
        <ele>27.5349</ele>
        <time>2012-03-21T14:29:10Z</time>
      </trkpt>
      <trkpt lat="59.9766972" lon="17.7396221">
        <ele>29.4575</ele>
        <time>2012-03-21T14:29:15Z</time>
      </trkpt>
      <trkpt lat="59.9766432" lon="17.7396898">
        <ele>28.4962</ele>
        <time>2012-03-21T14:29:20Z</time>
      </trkpt>
      <trkpt lat="59.9766144" lon="17.7397252">
        <ele>28.0155</ele>
        <time>2012-03-21T14:29:23Z</time>
      </trkpt>
      <trkpt lat="59.9765759" lon="17.7397977">
        <ele>28.4962</ele>
        <time>2012-03-21T14:29:27Z</time>
      </trkpt>
      <trkpt lat="59.9765522" lon="17.739834">
        <ele>28.4962</ele>
        <time>2012-03-21T14:29:29Z</time>
      </trkpt>
      <trkpt lat="59.976531" lon="17.7398532">
        <ele>28.9769</ele>
        <time>2012-03-21T14:29:31Z</time>
      </trkpt>
      <trkpt lat="59.9764532" lon="17.7398858">
        <ele>28.9769</ele>
        <time>2012-03-21T14:29:37Z</time>
      </trkpt>
      <trkpt lat="59.9764246" lon="17.7398999">
        <ele>28.9769</ele>
        <time>2012-03-21T14:29:39Z</time>
      </trkpt>
      <trkpt lat="59.9763104" lon="17.7399242">
        <ele>28.0155</ele>
        <time>2012-03-21T14:29:46Z</time>
      </trkpt>
      <trkpt lat="59.9762102" lon="17.7398636">
        <ele>29.4575</ele>
        <time>2012-03-21T14:29:52Z</time>
      </trkpt>
      <trkpt lat="59.9761493" lon="17.739748">
        <ele>29.9381</ele>
        <time>2012-03-21T14:29:59Z</time>
      </trkpt>
      <trkpt lat="59.9760984" lon="17.7396919">
        <ele>29.4575</ele>
        <time>2012-03-21T14:30:03Z</time>
      </trkpt>
      <trkpt lat="59.9760513" lon="17.7395849">
        <ele>28.0155</ele>
        <time>2012-03-21T14:30:07Z</time>
      </trkpt>
      <trkpt lat="59.9759949" lon="17.7394753">
        <ele>25.6123</ele>
        <time>2012-03-21T14:30:11Z</time>
      </trkpt>
      <trkpt lat="59.9759744" lon="17.7394468">
        <ele>24.1703</ele>
        <time>2012-03-21T14:30:12Z</time>
      </trkpt>
      <trkpt lat="59.9758959" lon="17.7393522">
        <ele>20.8057</ele>
        <time>2012-03-21T14:30:17Z</time>
      </trkpt>
      <trkpt lat="59.9758856" lon="17.7393301">
        <ele>18.8831</ele>
        <time>2012-03-21T14:30:20Z</time>
      </trkpt>
      <trkpt lat="59.9758145" lon="17.7392704">
        <ele>19.8444</ele>
        <time>2012-03-21T14:30:25Z</time>
      </trkpt>
      <trkpt lat="59.9757388" lon="17.7391772">
        <ele>21.767</ele>
        <time>2012-03-21T14:30:30Z</time>
      </trkpt>
      <trkpt lat="59.9756959" lon="17.7391132">
        <ele>22.2476</ele>
        <time>2012-03-21T14:30:33Z</time>
      </trkpt>
      <trkpt lat="59.9756339" lon="17.7390331">
        <ele>22.7283</ele>
        <time>2012-03-21T14:30:37Z</time>
      </trkpt>
      <trkpt lat="59.9755695" lon="17.7389466">
        <ele>22.2476</ele>
        <time>2012-03-21T14:30:43Z</time>
      </trkpt>
      <trkpt lat="59.9754888" lon="17.738831">
        <ele>24.1703</ele>
        <time>2012-03-21T14:30:49Z</time>
      </trkpt>
      <trkpt lat="59.9753777" lon="17.7386157">
        <ele>25.6123</ele>
        <time>2012-03-21T14:30:56Z</time>
      </trkpt>
      <trkpt lat="59.9753442" lon="17.7385468">
        <ele>26.0929</ele>
        <time>2012-03-21T14:30:59Z</time>
      </trkpt>
      <trkpt lat="59.9752987" lon="17.7384707">
        <ele>26.0929</ele>
        <time>2012-03-21T14:31:03Z</time>
      </trkpt>
      <trkpt lat="59.9752132" lon="17.7382996">
        <ele>24.651</ele>
        <time>2012-03-21T14:31:10Z</time>
      </trkpt>
      <trkpt lat="59.9751668" lon="17.7381913">
        <ele>23.209</ele>
        <time>2012-03-21T14:31:15Z</time>
      </trkpt>
      <trkpt lat="59.975092" lon="17.7380586">
        <ele>20.8057</ele>
        <time>2012-03-21T14:31:22Z</time>
      </trkpt>
      <trkpt lat="59.9750752" lon="17.7380325">
        <ele>19.8444</ele>
        <time>2012-03-21T14:31:24Z</time>
      </trkpt>
      <trkpt lat="59.9750354" lon="17.7379467">
        <ele>18.8831</ele>
        <time>2012-03-21T14:31:29Z</time>
      </trkpt>
      <trkpt lat="59.9749917" lon="17.7378418">
        <ele>19.8444</ele>
        <time>2012-03-21T14:31:36Z</time>
      </trkpt>
      <trkpt lat="59.9749625" lon="17.737761">
        <ele>22.2476</ele>
        <time>2012-03-21T14:31:41Z</time>
      </trkpt>
      <trkpt lat="59.9749229" lon="17.7377033">
        <ele>24.651</ele>
        <time>2012-03-21T14:31:45Z</time>
      </trkpt>
      <trkpt lat="59.974822" lon="17.7375486">
        <ele>27.5349</ele>
        <time>2012-03-21T14:31:55Z</time>
      </trkpt>
      <trkpt lat="59.9747816" lon="17.7374967">
        <ele>28.0155</ele>
        <time>2012-03-21T14:31:59Z</time>
      </trkpt>
      <trkpt lat="59.9747542" lon="17.7374342">
        <ele>27.5349</ele>
        <time>2012-03-21T14:32:03Z</time>
      </trkpt>
      <trkpt lat="59.9747257" lon="17.7373299">
        <ele>25.6123</ele>
        <time>2012-03-21T14:32:08Z</time>
      </trkpt>
      <trkpt lat="59.9746987" lon="17.7372609">
        <ele>23.6896</ele>
        <time>2012-03-21T14:32:12Z</time>
      </trkpt>
      <trkpt lat="59.9746427" lon="17.737121">
        <ele>22.2476</ele>
        <time>2012-03-21T14:32:18Z</time>
      </trkpt>
      <trkpt lat="59.9745623" lon="17.7369155">
        <ele>20.325</ele>
        <time>2012-03-21T14:32:25Z</time>
      </trkpt>
      <trkpt lat="59.9744942" lon="17.7367198">
        <ele>17.9218</ele>
        <time>2012-03-21T14:32:32Z</time>
      </trkpt>
      <trkpt lat="59.9744502" lon="17.7365727">
        <ele>16.9604</ele>
        <time>2012-03-21T14:32:37Z</time>
      </trkpt>
      <trkpt lat="59.9743994" lon="17.7364099">
        <ele>15.999</ele>
        <time>2012-03-21T14:32:43Z</time>
      </trkpt>
      <trkpt lat="59.9743736" lon="17.7362411">
        <ele>15.999</ele>
        <time>2012-03-21T14:32:49Z</time>
      </trkpt>
      <trkpt lat="59.9743438" lon="17.7361354">
        <ele>17.4412</ele>
        <time>2012-03-21T14:32:53Z</time>
      </trkpt>
      <trkpt lat="59.9743363" lon="17.7361064">
        <ele>17.4412</ele>
        <time>2012-03-21T14:32:54Z</time>
      </trkpt>
      <trkpt lat="59.9743289" lon="17.7360115">
        <ele>19.3638</ele>
        <time>2012-03-21T14:32:58Z</time>
      </trkpt>
      <trkpt lat="59.9743055" lon="17.7358762">
        <ele>20.8057</ele>
        <time>2012-03-21T14:33:03Z</time>
      </trkpt>
      <trkpt lat="59.9742865" lon="17.7357322">
        <ele>23.6896</ele>
        <time>2012-03-21T14:33:09Z</time>
      </trkpt>
      <trkpt lat="59.9742774" lon="17.7356205">
        <ele>24.651</ele>
        <time>2012-03-21T14:33:13Z</time>
      </trkpt>
      <trkpt lat="59.9742663" lon="17.735433">
        <ele>25.1317</ele>
        <time>2012-03-21T14:33:19Z</time>
      </trkpt>
      <trkpt lat="59.9742412" lon="17.735228">
        <ele>25.6123</ele>
        <time>2012-03-21T14:33:26Z</time>
      </trkpt>
      <trkpt lat="59.9742248" lon="17.7350582">
        <ele>25.1317</ele>
        <time>2012-03-21T14:33:31Z</time>
      </trkpt>
      <trkpt lat="59.9742118" lon="17.7348356">
        <ele>25.6123</ele>
        <time>2012-03-21T14:33:38Z</time>
      </trkpt>
      <trkpt lat="59.9742031" lon="17.7346612">
        <ele>25.6123</ele>
        <time>2012-03-21T14:33:44Z</time>
      </trkpt>
      <trkpt lat="59.9742159" lon="17.734413">
        <ele>26.0929</ele>
        <time>2012-03-21T14:33:52Z</time>
      </trkpt>
      <trkpt lat="59.974238" lon="17.7341365">
        <ele>25.6123</ele>
        <time>2012-03-21T14:34:01Z</time>
      </trkpt>
      <trkpt lat="59.9742397" lon="17.7339841">
        <ele>26.5736</ele>
        <time>2012-03-21T14:34:06Z</time>
      </trkpt>
      <trkpt lat="59.9742477" lon="17.7338086">
        <ele>26.5736</ele>
        <time>2012-03-21T14:34:12Z</time>
      </trkpt>
      <trkpt lat="59.9742625" lon="17.7336493">
        <ele>26.5736</ele>
        <time>2012-03-21T14:34:17Z</time>
      </trkpt>
      <trkpt lat="59.9742724" lon="17.7335075">
        <ele>27.0543</ele>
        <time>2012-03-21T14:34:22Z</time>
      </trkpt>
      <trkpt lat="59.974303" lon="17.7332738">
        <ele>27.5349</ele>
        <time>2012-03-21T14:34:29Z</time>
      </trkpt>
      <trkpt lat="59.9743165" lon="17.733173">
        <ele>27.0543</ele>
        <time>2012-03-21T14:34:32Z</time>
      </trkpt>
      <trkpt lat="59.9743354" lon="17.7329382">
        <ele>25.6123</ele>
        <time>2012-03-21T14:34:40Z</time>
      </trkpt>
      <trkpt lat="59.9743475" lon="17.7326787">
        <ele>24.1703</ele>
        <time>2012-03-21T14:34:49Z</time>
      </trkpt>
      <trkpt lat="59.9743418" lon="17.7324782">
        <ele>24.1703</ele>
        <time>2012-03-21T14:34:56Z</time>
      </trkpt>
      <trkpt lat="59.9743403" lon="17.7323009">
        <ele>22.7283</ele>
        <time>2012-03-21T14:35:02Z</time>
      </trkpt>
      <trkpt lat="59.9743427" lon="17.7321258">
        <ele>23.209</ele>
        <time>2012-03-21T14:35:08Z</time>
      </trkpt>
      <trkpt lat="59.9743394" lon="17.7319835">
        <ele>23.209</ele>
        <time>2012-03-21T14:35:13Z</time>
      </trkpt>
      <trkpt lat="59.9743378" lon="17.7317903">
        <ele>22.2476</ele>
        <time>2012-03-21T14:35:20Z</time>
      </trkpt>
      <trkpt lat="59.9743399" lon="17.7315902">
        <ele>21.767</ele>
        <time>2012-03-21T14:35:27Z</time>
      </trkpt>
      <trkpt lat="59.9743375" lon="17.7314506">
        <ele>21.2864</ele>
        <time>2012-03-21T14:35:32Z</time>
      </trkpt>
      <trkpt lat="59.9743362" lon="17.7313099">
        <ele>21.767</ele>
        <time>2012-03-21T14:35:37Z</time>
      </trkpt>
      <trkpt lat="59.9743337" lon="17.731109">
        <ele>22.2476</ele>
        <time>2012-03-21T14:35:44Z</time>
      </trkpt>
      <trkpt lat="59.9743373" lon="17.7310816">
        <ele>22.2476</ele>
        <time>2012-03-21T14:35:45Z</time>
      </trkpt>
      <trkpt lat="59.9743461" lon="17.7308832">
        <ele>21.767</ele>
        <time>2012-03-21T14:35:52Z</time>
      </trkpt>
      <trkpt lat="59.9743584" lon="17.7306391">
        <ele>21.767</ele>
        <time>2012-03-21T14:36:00Z</time>
      </trkpt>
      <trkpt lat="59.9743645" lon="17.7304617">
        <ele>22.7283</ele>
        <time>2012-03-21T14:36:06Z</time>
      </trkpt>
      <trkpt lat="59.9743837" lon="17.7302659">
        <ele>23.209</ele>
        <time>2012-03-21T14:36:12Z</time>
      </trkpt>
      <trkpt lat="59.9743857" lon="17.7301838">
        <ele>24.651</ele>
        <time>2012-03-21T14:36:15Z</time>
      </trkpt>
      <trkpt lat="59.9743911" lon="17.7299498">
        <ele>26.5736</ele>
        <time>2012-03-21T14:36:22Z</time>
      </trkpt>
      <trkpt lat="59.9744107" lon="17.7297198">
        <ele>26.5736</ele>
        <time>2012-03-21T14:36:29Z</time>
      </trkpt>
      <trkpt lat="59.9744145" lon="17.7296872">
        <ele>26.0929</ele>
        <time>2012-03-21T14:36:30Z</time>
      </trkpt>
      <trkpt lat="59.9744267" lon="17.7295613">
        <ele>26.0929</ele>
        <time>2012-03-21T14:36:34Z</time>
      </trkpt>
      <trkpt lat="59.9744392" lon="17.7294366">
        <ele>25.1317</ele>
        <time>2012-03-21T14:36:38Z</time>
      </trkpt>
      <trkpt lat="59.9744376" lon="17.7292707">
        <ele>24.651</ele>
        <time>2012-03-21T14:36:43Z</time>
      </trkpt>
      <trkpt lat="59.9744338" lon="17.7290756">
        <ele>24.1703</ele>
        <time>2012-03-21T14:36:49Z</time>
      </trkpt>
      <trkpt lat="59.9744349" lon="17.7288505">
        <ele>24.651</ele>
        <time>2012-03-21T14:36:56Z</time>
      </trkpt>
      <trkpt lat="59.9744297" lon="17.7286936">
        <ele>24.651</ele>
        <time>2012-03-21T14:37:01Z</time>
      </trkpt>
      <trkpt lat="59.9744128" lon="17.7284642">
        <ele>24.651</ele>
        <time>2012-03-21T14:37:08Z</time>
      </trkpt>
      <trkpt lat="59.9744057" lon="17.7282466">
        <ele>24.1703</ele>
        <time>2012-03-21T14:37:15Z</time>
      </trkpt>
      <trkpt lat="59.9744046" lon="17.7279762">
        <ele>23.6896</ele>
        <time>2012-03-21T14:37:24Z</time>
      </trkpt>
      <trkpt lat="59.9744031" lon="17.7277648">
        <ele>23.209</ele>
        <time>2012-03-21T14:37:31Z</time>
      </trkpt>
      <trkpt lat="59.9743973" lon="17.7275135">
        <ele>23.6896</ele>
        <time>2012-03-21T14:37:39Z</time>
      </trkpt>
      <trkpt lat="59.9743997" lon="17.7272728">
        <ele>23.6896</ele>
        <time>2012-03-21T14:37:47Z</time>
      </trkpt>
      <trkpt lat="59.974405" lon="17.7270676">
        <ele>24.651</ele>
        <time>2012-03-21T14:37:54Z</time>
      </trkpt>
      <trkpt lat="59.9743987" lon="17.7268147">
        <ele>25.6123</ele>
        <time>2012-03-21T14:38:02Z</time>
      </trkpt>
      <trkpt lat="59.9743957" lon="17.7265828">
        <ele>25.6123</ele>
        <time>2012-03-21T14:38:10Z</time>
      </trkpt>
      <trkpt lat="59.9743885" lon="17.726305">
        <ele>24.1703</ele>
        <time>2012-03-21T14:38:19Z</time>
      </trkpt>
      <trkpt lat="59.9743661" lon="17.7260763">
        <ele>25.1317</ele>
        <time>2012-03-21T14:38:26Z</time>
      </trkpt>
      <trkpt lat="59.9743496" lon="17.7258865">
        <ele>24.651</ele>
        <time>2012-03-21T14:38:32Z</time>
      </trkpt>
      <trkpt lat="59.9743351" lon="17.7257072">
        <ele>22.2476</ele>
        <time>2012-03-21T14:38:37Z</time>
      </trkpt>
      <trkpt lat="59.9743202" lon="17.7255416">
        <ele>20.325</ele>
        <time>2012-03-21T14:38:42Z</time>
      </trkpt>
      <trkpt lat="59.9743086" lon="17.7253494">
        <ele>20.325</ele>
        <time>2012-03-21T14:38:48Z</time>
      </trkpt>
      <trkpt lat="59.9742854" lon="17.7251467">
        <ele>20.325</ele>
        <time>2012-03-21T14:38:54Z</time>
      </trkpt>
      <trkpt lat="59.9742586" lon="17.7249329">
        <ele>18.8831</ele>
        <time>2012-03-21T14:39:01Z</time>
      </trkpt>
      <trkpt lat="59.9742459" lon="17.7248692">
        <ele>18.4023</ele>
        <time>2012-03-21T14:39:03Z</time>
      </trkpt>
      <trkpt lat="59.9742041" lon="17.7246718">
        <ele>18.4023</ele>
        <time>2012-03-21T14:39:10Z</time>
      </trkpt>
      <trkpt lat="59.9741735" lon="17.7245258">
        <ele>19.3638</ele>
        <time>2012-03-21T14:39:15Z</time>
      </trkpt>
      <trkpt lat="59.9741444" lon="17.7242734">
        <ele>20.325</ele>
        <time>2012-03-21T14:39:23Z</time>
      </trkpt>
      <trkpt lat="59.9741176" lon="17.7240829">
        <ele>19.8444</ele>
        <time>2012-03-21T14:39:29Z</time>
      </trkpt>
      <trkpt lat="59.9740884" lon="17.7238735">
        <ele>18.8831</ele>
        <time>2012-03-21T14:39:36Z</time>
      </trkpt>
      <trkpt lat="59.974088" lon="17.7237839">
        <ele>17.9218</ele>
        <time>2012-03-21T14:39:39Z</time>
      </trkpt>
      <trkpt lat="59.9740859" lon="17.7236789">
        <ele>16.9604</ele>
        <time>2012-03-21T14:39:43Z</time>
      </trkpt>
      <trkpt lat="59.9740774" lon="17.7235991">
        <ele>16.4797</ele>
        <time>2012-03-21T14:39:46Z</time>
      </trkpt>
      <trkpt lat="59.9740531" lon="17.7234933">
        <ele>16.4797</ele>
        <time>2012-03-21T14:39:50Z</time>
      </trkpt>
      <trkpt lat="59.9740301" lon="17.7233747">
        <ele>16.9604</ele>
        <time>2012-03-21T14:39:54Z</time>
      </trkpt>
      <trkpt lat="59.973993" lon="17.7232352">
        <ele>17.4412</ele>
        <time>2012-03-21T14:39:59Z</time>
      </trkpt>
      <trkpt lat="59.9739483" lon="17.7230344">
        <ele>18.4023</ele>
        <time>2012-03-21T14:40:06Z</time>
      </trkpt>
      <trkpt lat="59.9738875" lon="17.7228265">
        <ele>20.325</ele>
        <time>2012-03-21T14:40:13Z</time>
      </trkpt>
      <trkpt lat="59.9738441" lon="17.7226861">
        <ele>21.767</ele>
        <time>2012-03-21T14:40:18Z</time>
      </trkpt>
      <trkpt lat="59.97379" lon="17.7225165">
        <ele>22.7283</ele>
        <time>2012-03-21T14:40:24Z</time>
      </trkpt>
      <trkpt lat="59.9737322" lon="17.7223528">
        <ele>24.1703</ele>
        <time>2012-03-21T14:40:30Z</time>
      </trkpt>
      <trkpt lat="59.9737007" lon="17.722243">
        <ele>24.651</ele>
        <time>2012-03-21T14:40:34Z</time>
      </trkpt>
      <trkpt lat="59.9736613" lon="17.7221108">
        <ele>24.651</ele>
        <time>2012-03-21T14:40:39Z</time>
      </trkpt>
      <trkpt lat="59.9735936" lon="17.7219444">
        <ele>26.0929</ele>
        <time>2012-03-21T14:40:46Z</time>
      </trkpt>
      <trkpt lat="59.9735312" lon="17.7218249">
        <ele>25.6123</ele>
        <time>2012-03-21T14:40:51Z</time>
      </trkpt>
      <trkpt lat="59.9734652" lon="17.7216921">
        <ele>24.651</ele>
        <time>2012-03-21T14:40:57Z</time>
      </trkpt>
      <trkpt lat="59.9733644" lon="17.7215042">
        <ele>23.6896</ele>
        <time>2012-03-21T14:41:06Z</time>
      </trkpt>
      <trkpt lat="59.973273" lon="17.7213235">
        <ele>23.209</ele>
        <time>2012-03-21T14:41:14Z</time>
      </trkpt>
      <trkpt lat="59.9732191" lon="17.7212369">
        <ele>22.7283</ele>
        <time>2012-03-21T14:41:18Z</time>
      </trkpt>
      <trkpt lat="59.9731633" lon="17.7211292">
        <ele>22.7283</ele>
        <time>2012-03-21T14:41:23Z</time>
      </trkpt>
      <trkpt lat="59.9730643" lon="17.72098">
        <ele>26.0929</ele>
        <time>2012-03-21T14:41:31Z</time>
      </trkpt>
      <trkpt lat="59.9729625" lon="17.7208418">
        <ele>27.0543</ele>
        <time>2012-03-21T14:41:39Z</time>
      </trkpt>
      <trkpt lat="59.9728959" lon="17.7207613">
        <ele>28.0155</ele>
        <time>2012-03-21T14:41:44Z</time>
      </trkpt>
      <trkpt lat="59.9727962" lon="17.7206371">
        <ele>29.9381</ele>
        <time>2012-03-21T14:41:52Z</time>
      </trkpt>
      <trkpt lat="59.9727099" lon="17.7205298">
        <ele>30.4188</ele>
        <time>2012-03-21T14:41:59Z</time>
      </trkpt>
      <trkpt lat="59.9725877" lon="17.720407">
        <ele>30.4188</ele>
        <time>2012-03-21T14:42:08Z</time>
      </trkpt>
      <trkpt lat="59.9724631" lon="17.7202854">
        <ele>29.9381</ele>
        <time>2012-03-21T14:42:17Z</time>
      </trkpt>
      <trkpt lat="59.9723532" lon="17.7201779">
        <ele>28.9769</ele>
        <time>2012-03-21T14:42:25Z</time>
      </trkpt>
      <trkpt lat="59.972261" lon="17.7200821">
        <ele>28.9769</ele>
        <time>2012-03-21T14:42:32Z</time>
      </trkpt>
      <trkpt lat="59.9721503" lon="17.7200082">
        <ele>28.4962</ele>
        <time>2012-03-21T14:42:40Z</time>
      </trkpt>
      <trkpt lat="59.9720296" lon="17.7198994">
        <ele>28.9769</ele>
        <time>2012-03-21T14:42:49Z</time>
      </trkpt>
      <trkpt lat="59.9718837" lon="17.7197964">
        <ele>29.9381</ele>
        <time>2012-03-21T14:42:59Z</time>
      </trkpt>
      <trkpt lat="59.9717486" lon="17.7196404">
        <ele>28.4962</ele>
        <time>2012-03-21T14:43:09Z</time>
      </trkpt>
      <trkpt lat="59.9716669" lon="17.7195568">
        <ele>29.4575</ele>
        <time>2012-03-21T14:43:15Z</time>
      </trkpt>
      <trkpt lat="59.9715549" lon="17.7194537">
        <ele>29.4575</ele>
        <time>2012-03-21T14:43:23Z</time>
      </trkpt>
      <trkpt lat="59.9714633" lon="17.7193592">
        <ele>29.9381</ele>
        <time>2012-03-21T14:43:30Z</time>
      </trkpt>
      <trkpt lat="59.9714063" lon="17.7193566">
        <ele>28.9769</ele>
        <time>2012-03-21T14:43:33Z</time>
      </trkpt>
      <trkpt lat="59.9712895" lon="17.7192182">
        <ele>28.4962</ele>
        <time>2012-03-21T14:43:42Z</time>
      </trkpt>
      <trkpt lat="59.9711474" lon="17.7190745">
        <ele>28.9769</ele>
        <time>2012-03-21T14:43:52Z</time>
      </trkpt>
      <trkpt lat="59.9710595" lon="17.7189882">
        <ele>28.9769</ele>
        <time>2012-03-21T14:43:58Z</time>
      </trkpt>
      <trkpt lat="59.9709225" lon="17.7188647">
        <ele>28.9769</ele>
        <time>2012-03-21T14:44:08Z</time>
      </trkpt>
      <trkpt lat="59.970833" lon="17.7187981">
        <ele>29.4575</ele>
        <time>2012-03-21T14:44:14Z</time>
      </trkpt>
      <trkpt lat="59.9707021" lon="17.7186935">
        <ele>29.9381</ele>
        <time>2012-03-21T14:44:23Z</time>
      </trkpt>
      <trkpt lat="59.970564" lon="17.7185495">
        <ele>30.4188</ele>
        <time>2012-03-21T14:44:33Z</time>
      </trkpt>
      <trkpt lat="59.9704003" lon="17.7184065">
        <ele>30.4188</ele>
        <time>2012-03-21T14:44:44Z</time>
      </trkpt>
      <trkpt lat="59.9703019" lon="17.7183112">
        <ele>30.4188</ele>
        <time>2012-03-21T14:44:51Z</time>
      </trkpt>
      <trkpt lat="59.9701729" lon="17.7182046">
        <ele>31.3801</ele>
        <time>2012-03-21T14:45:00Z</time>
      </trkpt>
      <trkpt lat="59.9701489" lon="17.7182024">
        <ele>31.3801</ele>
        <time>2012-03-21T14:45:01Z</time>
      </trkpt>
      <trkpt lat="59.9700003" lon="17.7180419">
        <ele>31.8607</ele>
        <time>2012-03-21T14:45:12Z</time>
      </trkpt>
      <trkpt lat="59.969849" lon="17.7178921">
        <ele>32.8223</ele>
        <time>2012-03-21T14:45:23Z</time>
      </trkpt>
      <trkpt lat="59.9697081" lon="17.7177712">
        <ele>32.8223</ele>
        <time>2012-03-21T14:45:33Z</time>
      </trkpt>
      <trkpt lat="59.9695367" lon="17.7176511">
        <ele>33.7834</ele>
        <time>2012-03-21T14:45:45Z</time>
      </trkpt>
      <trkpt lat="59.9694029" lon="17.7175865">
        <ele>34.2642</ele>
        <time>2012-03-21T14:45:54Z</time>
      </trkpt>
      <trkpt lat="59.9692834" lon="17.717528">
        <ele>33.3029</ele>
        <time>2012-03-21T14:46:02Z</time>
      </trkpt>
      <trkpt lat="59.9691845" lon="17.7174783">
        <ele>33.3029</ele>
        <time>2012-03-21T14:46:09Z</time>
      </trkpt>
      <trkpt lat="59.9690804" lon="17.7174342">
        <ele>33.3029</ele>
        <time>2012-03-21T14:46:16Z</time>
      </trkpt>
      <trkpt lat="59.9689662" lon="17.7174192">
        <ele>34.7449</ele>
        <time>2012-03-21T14:46:23Z</time>
      </trkpt>
      <trkpt lat="59.9688385" lon="17.7174964">
        <ele>34.7449</ele>
        <time>2012-03-21T14:46:30Z</time>
      </trkpt>
      <trkpt lat="59.9687349" lon="17.7175021">
        <ele>33.7834</ele>
        <time>2012-03-21T14:46:37Z</time>
      </trkpt>
      <trkpt lat="59.9686876" lon="17.7174899">
        <ele>32.8223</ele>
        <time>2012-03-21T14:46:40Z</time>
      </trkpt>
      <trkpt lat="59.9686204" lon="17.717434">
        <ele>32.3416</ele>
        <time>2012-03-21T14:46:45Z</time>
      </trkpt>
      <trkpt lat="59.9686102" lon="17.7174253">
        <ele>31.3801</ele>
        <time>2012-03-21T14:46:46Z</time>
      </trkpt>
      <trkpt lat="59.9685131" lon="17.7173832">
        <ele>31.3801</ele>
        <time>2012-03-21T14:46:53Z</time>
      </trkpt>
      <trkpt lat="59.9684359" lon="17.7173337">
        <ele>31.3801</ele>
        <time>2012-03-21T14:46:58Z</time>
      </trkpt>
      <trkpt lat="59.9684038" lon="17.7173131">
        <ele>30.4188</ele>
        <time>2012-03-21T14:47:00Z</time>
      </trkpt>
      <trkpt lat="59.9683032" lon="17.7172534">
        <ele>27.0543</ele>
        <time>2012-03-21T14:47:07Z</time>
      </trkpt>
      <trkpt lat="59.9682791" lon="17.7172265">
        <ele>26.5736</ele>
        <time>2012-03-21T14:47:09Z</time>
      </trkpt>
      <trkpt lat="59.9682024" lon="17.717137">
        <ele>25.6123</ele>
        <time>2012-03-21T14:47:15Z</time>
      </trkpt>
      <trkpt lat="59.9681454" lon="17.7170746">
        <ele>25.1317</ele>
        <time>2012-03-21T14:47:19Z</time>
      </trkpt>
      <trkpt lat="59.9680427" lon="17.7169369">
        <ele>24.1703</ele>
        <time>2012-03-21T14:47:27Z</time>
      </trkpt>
      <trkpt lat="59.9680024" lon="17.7168955">
        <ele>23.209</ele>
        <time>2012-03-21T14:47:30Z</time>
      </trkpt>
      <trkpt lat="59.9679023" lon="17.7167456">
        <ele>20.325</ele>
        <time>2012-03-21T14:47:38Z</time>
      </trkpt>
      <trkpt lat="59.9678389" lon="17.7166249">
        <ele>17.9218</ele>
        <time>2012-03-21T14:47:44Z</time>
      </trkpt>
      <trkpt lat="59.9677791" lon="17.7164819">
        <ele>15.5184</ele>
        <time>2012-03-21T14:47:51Z</time>
      </trkpt>
      <trkpt lat="59.9677246" lon="17.7163536">
        <ele>16.4797</ele>
        <time>2012-03-21T14:47:56Z</time>
      </trkpt>
      <trkpt lat="59.967689" lon="17.7161857">
        <ele>17.4412</ele>
        <time>2012-03-21T14:48:02Z</time>
      </trkpt>
      <trkpt lat="59.9676541" lon="17.7160749">
        <ele>17.9218</ele>
        <time>2012-03-21T14:48:06Z</time>
      </trkpt>
      <trkpt lat="59.9676176" lon="17.7159592">
        <ele>18.4023</ele>
        <time>2012-03-21T14:48:11Z</time>
      </trkpt>
      <trkpt lat="59.9676029" lon="17.7159179">
        <ele>18.8831</ele>
        <time>2012-03-21T14:48:13Z</time>
      </trkpt>
      <trkpt lat="59.9675602" lon="17.7157506">
        <ele>19.8444</ele>
        <time>2012-03-21T14:48:19Z</time>
      </trkpt>
      <trkpt lat="59.9675554" lon="17.7155878">
        <ele>15.5184</ele>
        <time>2012-03-21T14:48:24Z</time>
      </trkpt>
      <trkpt lat="59.967512" lon="17.7154139">
        <ele>12.1538</ele>
        <time>2012-03-21T14:48:30Z</time>
      </trkpt>
      <trkpt lat="59.9674708" lon="17.7152373">
        <ele>13.5958</ele>
        <time>2012-03-21T14:48:36Z</time>
      </trkpt>
      <trkpt lat="59.9674627" lon="17.7152069">
        <ele>12.6344</ele>
        <time>2012-03-21T14:48:37Z</time>
      </trkpt>
      <trkpt lat="59.9674531" lon="17.7151418">
        <ele>11.1925</ele>
        <time>2012-03-21T14:48:39Z</time>
      </trkpt>
      <trkpt lat="59.9674656" lon="17.7150011">
        <ele>13.5958</ele>
        <time>2012-03-21T14:48:44Z</time>
      </trkpt>
      <trkpt lat="59.9674673" lon="17.7149829">
        <ele>13.5958</ele>
        <time>2012-03-21T14:48:45Z</time>
      </trkpt>
      <trkpt lat="59.9674383" lon="17.7147846">
        <ele>14.0764</ele>
        <time>2012-03-21T14:48:52Z</time>
      </trkpt>
      <trkpt lat="59.9673922" lon="17.7145487">
        <ele>15.999</ele>
        <time>2012-03-21T14:49:00Z</time>
      </trkpt>
      <trkpt lat="59.9673626" lon="17.7144091">
        <ele>19.3638</ele>
        <time>2012-03-21T14:49:04Z</time>
      </trkpt>
      <trkpt lat="59.9673373" lon="17.7142568">
        <ele>22.7283</ele>
        <time>2012-03-21T14:49:09Z</time>
      </trkpt>
      <trkpt lat="59.9672942" lon="17.7140685">
        <ele>24.1703</ele>
        <time>2012-03-21T14:49:15Z</time>
      </trkpt>
      <trkpt lat="59.9672534" lon="17.7138414">
        <ele>25.6123</ele>
        <time>2012-03-21T14:49:23Z</time>
      </trkpt>
      <trkpt lat="59.9672317" lon="17.713672">
        <ele>25.1317</ele>
        <time>2012-03-21T14:49:29Z</time>
      </trkpt>
      <trkpt lat="59.9672011" lon="17.7134653">
        <ele>25.6123</ele>
        <time>2012-03-21T14:49:36Z</time>
      </trkpt>
      <trkpt lat="59.9671613" lon="17.713286">
        <ele>26.5736</ele>
        <time>2012-03-21T14:49:42Z</time>
      </trkpt>
      <trkpt lat="59.9671152" lon="17.7131138">
        <ele>27.5349</ele>
        <time>2012-03-21T14:49:48Z</time>
      </trkpt>
      <trkpt lat="59.9670555" lon="17.7128849">
        <ele>28.9769</ele>
        <time>2012-03-21T14:49:56Z</time>
      </trkpt>
      <trkpt lat="59.9670078" lon="17.7126679">
        <ele>30.4188</ele>
        <time>2012-03-21T14:50:03Z</time>
      </trkpt>
      <trkpt lat="59.9669747" lon="17.7125255">
        <ele>30.4188</ele>
        <time>2012-03-21T14:50:08Z</time>
      </trkpt>
      <trkpt lat="59.9669198" lon="17.7123091">
        <ele>28.9769</ele>
        <time>2012-03-21T14:50:17Z</time>
      </trkpt>
      <trkpt lat="59.9668603" lon="17.7121387">
        <ele>27.0543</ele>
        <time>2012-03-21T14:50:24Z</time>
      </trkpt>
      <trkpt lat="59.9668378" lon="17.7120635">
        <ele>26.0929</ele>
        <time>2012-03-21T14:50:27Z</time>
      </trkpt>
      <trkpt lat="59.9667803" lon="17.7119279">
        <ele>25.1317</ele>
        <time>2012-03-21T14:50:33Z</time>
      </trkpt>
      <trkpt lat="59.9667706" lon="17.711907">
        <ele>24.651</ele>
        <time>2012-03-21T14:50:34Z</time>
      </trkpt>
      <trkpt lat="59.9667053" lon="17.7117435">
        <ele>25.6123</ele>
        <time>2012-03-21T14:50:41Z</time>
      </trkpt>
      <trkpt lat="59.9666547" lon="17.7115694">
        <ele>26.0929</ele>
        <time>2012-03-21T14:50:47Z</time>
      </trkpt>
      <trkpt lat="59.9666487" lon="17.7115108">
        <ele>25.6123</ele>
        <time>2012-03-21T14:50:49Z</time>
      </trkpt>
      <trkpt lat="59.9666174" lon="17.7113826">
        <ele>25.1317</ele>
        <time>2012-03-21T14:50:54Z</time>
      </trkpt>
      <trkpt lat="59.9665634" lon="17.7112197">
        <ele>26.5736</ele>
        <time>2012-03-21T14:51:01Z</time>
      </trkpt>
      <trkpt lat="59.9665597" lon="17.711191">
        <ele>26.5736</ele>
        <time>2012-03-21T14:51:02Z</time>
      </trkpt>
      <trkpt lat="59.9665109" lon="17.7110316">
        <ele>27.0543</ele>
        <time>2012-03-21T14:51:09Z</time>
      </trkpt>
      <trkpt lat="59.9664751" lon="17.7109038">
        <ele>26.0929</ele>
        <time>2012-03-21T14:51:14Z</time>
      </trkpt>
      <trkpt lat="59.9664549" lon="17.7107745">
        <ele>24.651</ele>
        <time>2012-03-21T14:51:18Z</time>
      </trkpt>
      <trkpt lat="59.9664368" lon="17.7107222">
        <ele>24.1703</ele>
        <time>2012-03-21T14:51:20Z</time>
      </trkpt>
      <trkpt lat="59.9663785" lon="17.7105435">
        <ele>26.0929</ele>
        <time>2012-03-21T14:51:26Z</time>
      </trkpt>
      <trkpt lat="59.9663454" lon="17.7104302">
        <ele>26.5736</ele>
        <time>2012-03-21T14:51:30Z</time>
      </trkpt>
      <trkpt lat="59.9663235" lon="17.710394">
        <ele>27.0543</ele>
        <time>2012-03-21T14:51:32Z</time>
      </trkpt>
      <trkpt lat="59.9662614" lon="17.7102065">
        <ele>28.4962</ele>
        <time>2012-03-21T14:51:39Z</time>
      </trkpt>
      <trkpt lat="59.9662385" lon="17.7100992">
        <ele>28.0155</ele>
        <time>2012-03-21T14:51:43Z</time>
      </trkpt>
      <trkpt lat="59.9662044" lon="17.709969">
        <ele>28.0155</ele>
        <time>2012-03-21T14:51:49Z</time>
      </trkpt>
      <trkpt lat="59.9661916" lon="17.7099231">
        <ele>28.0155</ele>
        <time>2012-03-21T14:51:51Z</time>
      </trkpt>
      <trkpt lat="59.9661683" lon="17.7098163">
        <ele>27.5349</ele>
        <time>2012-03-21T14:51:55Z</time>
      </trkpt>
      <trkpt lat="59.9661428" lon="17.7097194">
        <ele>28.0155</ele>
        <time>2012-03-21T14:51:59Z</time>
      </trkpt>
      <trkpt lat="59.9661148" lon="17.7096355">
        <ele>27.5349</ele>
        <time>2012-03-21T14:52:02Z</time>
      </trkpt>
      <trkpt lat="59.9660521" lon="17.7094754">
        <ele>28.0155</ele>
        <time>2012-03-21T14:52:08Z</time>
      </trkpt>
      <trkpt lat="59.966006" lon="17.7092894">
        <ele>25.6123</ele>
        <time>2012-03-21T14:52:14Z</time>
      </trkpt>
      <trkpt lat="59.9659889" lon="17.7092294">
        <ele>25.1317</ele>
        <time>2012-03-21T14:52:16Z</time>
      </trkpt>
      <trkpt lat="59.9659392" lon="17.7090897">
        <ele>26.0929</ele>
        <time>2012-03-21T14:52:21Z</time>
      </trkpt>
      <trkpt lat="59.9658967" lon="17.708986">
        <ele>27.5349</ele>
        <time>2012-03-21T14:52:25Z</time>
      </trkpt>
      <trkpt lat="59.9658108" lon="17.70877">
        <ele>29.4575</ele>
        <time>2012-03-21T14:52:33Z</time>
      </trkpt>
      <trkpt lat="59.965704" lon="17.708541">
        <ele>30.8995</ele>
        <time>2012-03-21T14:52:43Z</time>
      </trkpt>
      <trkpt lat="59.9656346" lon="17.7084248">
        <ele>31.3801</ele>
        <time>2012-03-21T14:52:49Z</time>
      </trkpt>
      <trkpt lat="59.9655461" lon="17.7083016">
        <ele>31.8607</ele>
        <time>2012-03-21T14:52:56Z</time>
      </trkpt>
      <trkpt lat="59.9654408" lon="17.7081929">
        <ele>33.7834</ele>
        <time>2012-03-21T14:53:03Z</time>
      </trkpt>
      <trkpt lat="59.9653215" lon="17.7080851">
        <ele>32.8223</ele>
        <time>2012-03-21T14:53:11Z</time>
      </trkpt>
      <trkpt lat="59.9653067" lon="17.708069">
        <ele>32.8223</ele>
        <time>2012-03-21T14:53:12Z</time>
      </trkpt>
      <trkpt lat="59.9652062" lon="17.7079772">
        <ele>31.3801</ele>
        <time>2012-03-21T14:53:19Z</time>
      </trkpt>
      <trkpt lat="59.9651564" lon="17.7079437">
        <ele>29.4575</ele>
        <time>2012-03-21T14:53:23Z</time>
      </trkpt>
      <trkpt lat="59.9650736" lon="17.707886">
        <ele>29.9381</ele>
        <time>2012-03-21T14:53:29Z</time>
      </trkpt>
      <trkpt lat="59.9649871" lon="17.7078122">
        <ele>29.9381</ele>
        <time>2012-03-21T14:53:35Z</time>
      </trkpt>
      <trkpt lat="59.9649136" lon="17.707757">
        <ele>29.9381</ele>
        <time>2012-03-21T14:53:40Z</time>
      </trkpt>
      <trkpt lat="59.9648493" lon="17.7076888">
        <ele>28.9769</ele>
        <time>2012-03-21T14:53:45Z</time>
      </trkpt>
      <trkpt lat="59.9647419" lon="17.7076035">
        <ele>28.0155</ele>
        <time>2012-03-21T14:53:52Z</time>
      </trkpt>
      <trkpt lat="59.964625" lon="17.7075229">
        <ele>26.5736</ele>
        <time>2012-03-21T14:54:00Z</time>
      </trkpt>
      <trkpt lat="59.9644871" lon="17.7074506">
        <ele>25.1317</ele>
        <time>2012-03-21T14:54:10Z</time>
      </trkpt>
      <trkpt lat="59.9643997" lon="17.7074291">
        <ele>25.6123</ele>
        <time>2012-03-21T14:54:16Z</time>
      </trkpt>
      <trkpt lat="59.9642816" lon="17.707377">
        <ele>25.6123</ele>
        <time>2012-03-21T14:54:24Z</time>
      </trkpt>
      <trkpt lat="59.9641933" lon="17.7073568">
        <ele>26.5736</ele>
        <time>2012-03-21T14:54:30Z</time>
      </trkpt>
      <trkpt lat="59.9640422" lon="17.7073188">
        <ele>27.5349</ele>
        <time>2012-03-21T14:54:40Z</time>
      </trkpt>
      <trkpt lat="59.9639037" lon="17.7073128">
        <ele>28.4962</ele>
        <time>2012-03-21T14:54:49Z</time>
      </trkpt>
      <trkpt lat="59.9637986" lon="17.7072924">
        <ele>29.4575</ele>
        <time>2012-03-21T14:54:56Z</time>
      </trkpt>
      <trkpt lat="59.9636904" lon="17.7072789">
        <ele>28.0155</ele>
        <time>2012-03-21T14:55:03Z</time>
      </trkpt>
      <trkpt lat="59.9636144" lon="17.7072667">
        <ele>28.4962</ele>
        <time>2012-03-21T14:55:08Z</time>
      </trkpt>
      <trkpt lat="59.9635225" lon="17.7072625">
        <ele>29.4575</ele>
        <time>2012-03-21T14:55:14Z</time>
      </trkpt>
      <trkpt lat="59.9635061" lon="17.7072631">
        <ele>29.4575</ele>
        <time>2012-03-21T14:55:15Z</time>
      </trkpt>
      <trkpt lat="59.9634486" lon="17.7072687">
        <ele>30.4188</ele>
        <time>2012-03-21T14:55:19Z</time>
      </trkpt>
      <trkpt lat="59.963318" lon="17.7073">
        <ele>31.3801</ele>
        <time>2012-03-21T14:55:27Z</time>
      </trkpt>
      <trkpt lat="59.9632459" lon="17.7072851">
        <ele>29.9381</ele>
        <time>2012-03-21T14:55:32Z</time>
      </trkpt>
      <trkpt lat="59.9631378" lon="17.7072712">
        <ele>28.4962</ele>
        <time>2012-03-21T14:55:39Z</time>
      </trkpt>
      <trkpt lat="59.9630362" lon="17.7072983">
        <ele>29.9381</ele>
        <time>2012-03-21T14:55:46Z</time>
      </trkpt>
      <trkpt lat="59.9629159" lon="17.7073009">
        <ele>30.4188</ele>
        <time>2012-03-21T14:55:54Z</time>
      </trkpt>
      <trkpt lat="59.9628486" lon="17.7072873">
        <ele>28.0155</ele>
        <time>2012-03-21T14:56:00Z</time>
      </trkpt>
      <trkpt lat="59.9627493" lon="17.7072775">
        <ele>25.1317</ele>
        <time>2012-03-21T14:56:07Z</time>
      </trkpt>
      <trkpt lat="59.9627052" lon="17.7072542">
        <ele>24.1703</ele>
        <time>2012-03-21T14:56:10Z</time>
      </trkpt>
      <trkpt lat="59.9626431" lon="17.707192">
        <ele>23.209</ele>
        <time>2012-03-21T14:56:15Z</time>
      </trkpt>
      <trkpt lat="59.9625689" lon="17.7071822">
        <ele>24.1703</ele>
        <time>2012-03-21T14:56:19Z</time>
      </trkpt>
      <trkpt lat="59.9625539" lon="17.7071784">
        <ele>24.1703</ele>
        <time>2012-03-21T14:56:20Z</time>
      </trkpt>
      <trkpt lat="59.9624607" lon="17.7071458">
        <ele>24.1703</ele>
        <time>2012-03-21T14:56:26Z</time>
      </trkpt>
      <trkpt lat="59.9623052" lon="17.7070663">
        <ele>27.5349</ele>
        <time>2012-03-21T14:56:36Z</time>
      </trkpt>
      <trkpt lat="59.9622071" lon="17.7070477">
        <ele>28.4962</ele>
        <time>2012-03-21T14:56:42Z</time>
      </trkpt>
      <trkpt lat="59.9621257" lon="17.7070046">
        <ele>28.0155</ele>
        <time>2012-03-21T14:56:47Z</time>
      </trkpt>
      <trkpt lat="59.9620054" lon="17.7069399">
        <ele>27.0543</ele>
        <time>2012-03-21T14:56:54Z</time>
      </trkpt>
      <trkpt lat="59.9619092" lon="17.7068937">
        <ele>25.1317</ele>
        <time>2012-03-21T14:57:00Z</time>
      </trkpt>
      <trkpt lat="59.9618179" lon="17.7068089">
        <ele>24.1703</ele>
        <time>2012-03-21T14:57:06Z</time>
      </trkpt>
      <trkpt lat="59.9617405" lon="17.7067518">
        <ele>24.1703</ele>
        <time>2012-03-21T14:57:12Z</time>
      </trkpt>
      <trkpt lat="59.9617134" lon="17.706746">
        <ele>24.1703</ele>
        <time>2012-03-21T14:57:14Z</time>
      </trkpt>
      <trkpt lat="59.9616872" lon="17.7067036">
        <ele>24.1703</ele>
        <time>2012-03-21T14:57:18Z</time>
      </trkpt>
      <trkpt lat="59.9616024" lon="17.706613">
        <ele>25.6123</ele>
        <time>2012-03-21T14:57:23Z</time>
      </trkpt>
      <trkpt lat="59.9615163" lon="17.7064812">
        <ele>27.0543</ele>
        <time>2012-03-21T14:57:29Z</time>
      </trkpt>
      <trkpt lat="59.961451" lon="17.7063467">
        <ele>27.5349</ele>
        <time>2012-03-21T14:57:35Z</time>
      </trkpt>
      <trkpt lat="59.9613719" lon="17.7062103">
        <ele>29.4575</ele>
        <time>2012-03-21T14:57:42Z</time>
      </trkpt>
      <trkpt lat="59.9612813" lon="17.7060642">
        <ele>29.9381</ele>
        <time>2012-03-21T14:57:50Z</time>
      </trkpt>
      <trkpt lat="59.9612114" lon="17.7059503">
        <ele>29.9381</ele>
        <time>2012-03-21T14:57:56Z</time>
      </trkpt>
      <trkpt lat="59.9611474" lon="17.7058591">
        <ele>28.4962</ele>
        <time>2012-03-21T14:58:02Z</time>
      </trkpt>
      <trkpt lat="59.9610917" lon="17.70575">
        <ele>28.0155</ele>
        <time>2012-03-21T14:58:07Z</time>
      </trkpt>
      <trkpt lat="59.9609907" lon="17.7055981">
        <ele>29.4575</ele>
        <time>2012-03-21T14:58:15Z</time>
      </trkpt>
      <trkpt lat="59.9609752" lon="17.7055899">
        <ele>29.4575</ele>
        <time>2012-03-21T14:58:16Z</time>
      </trkpt>
      <trkpt lat="59.9608903" lon="17.7054733">
        <ele>28.4962</ele>
        <time>2012-03-21T14:58:23Z</time>
      </trkpt>
      <trkpt lat="59.9608756" lon="17.7054542">
        <ele>28.9769</ele>
        <time>2012-03-21T14:58:24Z</time>
      </trkpt>
      <trkpt lat="59.960785" lon="17.7052939">
        <ele>29.4575</ele>
        <time>2012-03-21T14:58:32Z</time>
      </trkpt>
      <trkpt lat="59.9607762" lon="17.7052754">
        <ele>28.9769</ele>
        <time>2012-03-21T14:58:33Z</time>
      </trkpt>
      <trkpt lat="59.9607512" lon="17.7052202">
        <ele>28.4962</ele>
        <time>2012-03-21T14:58:36Z</time>
      </trkpt>
      <trkpt lat="59.9606804" lon="17.7051299">
        <ele>29.4575</ele>
        <time>2012-03-21T14:58:42Z</time>
      </trkpt>
      <trkpt lat="59.9605453" lon="17.704956">
        <ele>31.3801</ele>
        <time>2012-03-21T14:58:52Z</time>
      </trkpt>
      <trkpt lat="59.9604774" lon="17.7048735">
        <ele>31.8607</ele>
        <time>2012-03-21T14:58:57Z</time>
      </trkpt>
      <trkpt lat="59.9603999" lon="17.7048619">
        <ele>33.3029</ele>
        <time>2012-03-21T14:59:02Z</time>
      </trkpt>
      <trkpt lat="59.9603269" lon="17.704858">
        <ele>33.3029</ele>
        <time>2012-03-21T14:59:07Z</time>
      </trkpt>
      <trkpt lat="59.9602313" lon="17.7048304">
        <ele>35.2255</ele>
        <time>2012-03-21T14:59:13Z</time>
      </trkpt>
      <trkpt lat="59.9601787" lon="17.7047868">
        <ele>34.7449</ele>
        <time>2012-03-21T14:59:17Z</time>
      </trkpt>
      <trkpt lat="59.9601116" lon="17.704792">
        <ele>34.2642</ele>
        <time>2012-03-21T14:59:22Z</time>
      </trkpt>
      <trkpt lat="59.9600967" lon="17.7047973">
        <ele>33.7834</ele>
        <time>2012-03-21T14:59:23Z</time>
      </trkpt>
      <trkpt lat="59.9600044" lon="17.7048482">
        <ele>32.3416</ele>
        <time>2012-03-21T14:59:29Z</time>
      </trkpt>
      <trkpt lat="59.9599592" lon="17.7048646">
        <ele>32.3416</ele>
        <time>2012-03-21T14:59:32Z</time>
      </trkpt>
      <trkpt lat="59.9599121" lon="17.7050035">
        <ele>31.8607</ele>
        <time>2012-03-21T14:59:36Z</time>
      </trkpt>
      <trkpt lat="59.9598731" lon="17.7050656">
        <ele>31.8607</ele>
        <time>2012-03-21T14:59:40Z</time>
      </trkpt>
      <trkpt lat="59.959798" lon="17.7052206">
        <ele>31.8607</ele>
        <time>2012-03-21T14:59:48Z</time>
      </trkpt>
      <trkpt lat="59.9597293" lon="17.7054194">
        <ele>31.3801</ele>
        <time>2012-03-21T14:59:57Z</time>
      </trkpt>
      <trkpt lat="59.9596994" lon="17.7055333">
        <ele>29.9381</ele>
        <time>2012-03-21T15:00:02Z</time>
      </trkpt>
      <trkpt lat="59.9596521" lon="17.7056339">
        <ele>31.3801</ele>
        <time>2012-03-21T15:00:06Z</time>
      </trkpt>
      <trkpt lat="59.9596001" lon="17.7057598">
        <ele>33.7834</ele>
        <time>2012-03-21T15:00:12Z</time>
      </trkpt>
      <trkpt lat="59.9595289" lon="17.7059535">
        <ele>35.7061</ele>
        <time>2012-03-21T15:00:19Z</time>
      </trkpt>
      <trkpt lat="59.9594936" lon="17.7060411">
        <ele>35.7061</ele>
        <time>2012-03-21T15:00:23Z</time>
      </trkpt>
      <trkpt lat="59.9594411" lon="17.7061664">
        <ele>35.7061</ele>
        <time>2012-03-21T15:00:28Z</time>
      </trkpt>
      <trkpt lat="59.9593821" lon="17.70634">
        <ele>35.7061</ele>
        <time>2012-03-21T15:00:34Z</time>
      </trkpt>
      <trkpt lat="59.9593527" lon="17.7064294">
        <ele>35.2255</ele>
        <time>2012-03-21T15:00:37Z</time>
      </trkpt>
      <trkpt lat="59.9592984" lon="17.7065974">
        <ele>35.7061</ele>
        <time>2012-03-21T15:00:43Z</time>
      </trkpt>
      <trkpt lat="59.9592701" lon="17.7067153">
        <ele>36.6675</ele>
        <time>2012-03-21T15:00:46Z</time>
      </trkpt>
      <trkpt lat="59.9591921" lon="17.7069286">
        <ele>36.6675</ele>
        <time>2012-03-21T15:00:53Z</time>
      </trkpt>
      <trkpt lat="59.9591632" lon="17.7070358">
        <ele>37.6287</ele>
        <time>2012-03-21T15:00:57Z</time>
      </trkpt>
      <trkpt lat="59.9591121" lon="17.7071844">
        <ele>37.1481</ele>
        <time>2012-03-21T15:01:03Z</time>
      </trkpt>
      <trkpt lat="59.9590775" lon="17.707303">
        <ele>36.1868</ele>
        <time>2012-03-21T15:01:09Z</time>
      </trkpt>
      <trkpt lat="59.9590714" lon="17.7073439">
        <ele>35.2255</ele>
        <time>2012-03-21T15:01:11Z</time>
      </trkpt>
      <trkpt lat="59.9590567" lon="17.7074889">
        <ele>33.7834</ele>
        <time>2012-03-21T15:01:17Z</time>
      </trkpt>
      <trkpt lat="59.9590459" lon="17.7075148">
        <ele>33.3029</ele>
        <time>2012-03-21T15:01:18Z</time>
      </trkpt>
      <trkpt lat="59.9590327" lon="17.7076602">
        <ele>31.3801</ele>
        <time>2012-03-21T15:01:24Z</time>
      </trkpt>
      <trkpt lat="59.9590108" lon="17.7077417">
        <ele>33.3029</ele>
        <time>2012-03-21T15:01:28Z</time>
      </trkpt>
      <trkpt lat="59.9589984" lon="17.7079014">
        <ele>30.8995</ele>
        <time>2012-03-21T15:01:34Z</time>
      </trkpt>
      <trkpt lat="59.9589735" lon="17.7079998">
        <ele>31.3801</ele>
        <time>2012-03-21T15:01:38Z</time>
      </trkpt>
      <trkpt lat="59.9589368" lon="17.7081945">
        <ele>35.2255</ele>
        <time>2012-03-21T15:01:44Z</time>
      </trkpt>
      <trkpt lat="59.9589036" lon="17.7083574">
        <ele>37.6287</ele>
        <time>2012-03-21T15:01:49Z</time>
      </trkpt>
      <trkpt lat="59.9588735" lon="17.7085343">
        <ele>40.5128</ele>
        <time>2012-03-21T15:01:55Z</time>
      </trkpt>
      <trkpt lat="59.9588495" lon="17.7087035">
        <ele>41.9547</ele>
        <time>2012-03-21T15:02:00Z</time>
      </trkpt>
      <trkpt lat="59.9588362" lon="17.7088029">
        <ele>42.4354</ele>
        <time>2012-03-21T15:02:04Z</time>
      </trkpt>
      <trkpt lat="59.9588114" lon="17.7089654">
        <ele>42.916</ele>
        <time>2012-03-21T15:02:10Z</time>
      </trkpt>
      <trkpt lat="59.958783" lon="17.7091427">
        <ele>42.4354</ele>
        <time>2012-03-21T15:02:16Z</time>
      </trkpt>
      <trkpt lat="59.9587632" lon="17.70926">
        <ele>43.8773</ele>
        <time>2012-03-21T15:02:20Z</time>
      </trkpt>
      <trkpt lat="59.9587433" lon="17.7094164">
        <ele>42.916</ele>
        <time>2012-03-21T15:02:26Z</time>
      </trkpt>
      <trkpt lat="59.9587321" lon="17.7095128">
        <ele>42.4354</ele>
        <time>2012-03-21T15:02:29Z</time>
      </trkpt>
      <trkpt lat="59.9587217" lon="17.7095693">
        <ele>41.9547</ele>
        <time>2012-03-21T15:02:31Z</time>
      </trkpt>
      <trkpt lat="59.9587212" lon="17.7096138">
        <ele>41.474</ele>
        <time>2012-03-21T15:02:33Z</time>
      </trkpt>
      <trkpt lat="59.9587213" lon="17.7097441">
        <ele>41.474</ele>
        <time>2012-03-21T15:02:38Z</time>
      </trkpt>
      <trkpt lat="59.9587047" lon="17.709905">
        <ele>41.474</ele>
        <time>2012-03-21T15:02:44Z</time>
      </trkpt>
      <trkpt lat="59.9586855" lon="17.7100465">
        <ele>42.916</ele>
        <time>2012-03-21T15:02:49Z</time>
      </trkpt>
      <trkpt lat="59.9586783" lon="17.7101225">
        <ele>43.3966</ele>
        <time>2012-03-21T15:02:52Z</time>
      </trkpt>
      <trkpt lat="59.9586592" lon="17.710299">
        <ele>44.8386</ele>
        <time>2012-03-21T15:02:58Z</time>
      </trkpt>
      <trkpt lat="59.9586429" lon="17.7104414">
        <ele>45.3192</ele>
        <time>2012-03-21T15:03:03Z</time>
      </trkpt>
      <trkpt lat="59.9586233" lon="17.7106313">
        <ele>44.8386</ele>
        <time>2012-03-21T15:03:10Z</time>
      </trkpt>
      <trkpt lat="59.9585875" lon="17.7108414">
        <ele>44.358</ele>
        <time>2012-03-21T15:03:16Z</time>
      </trkpt>
      <trkpt lat="59.9585539" lon="17.7110327">
        <ele>43.8773</ele>
        <time>2012-03-21T15:03:22Z</time>
      </trkpt>
      <trkpt lat="59.9585368" lon="17.7111747">
        <ele>43.8773</ele>
        <time>2012-03-21T15:03:27Z</time>
      </trkpt>
      <trkpt lat="59.9585135" lon="17.7114103">
        <ele>43.8773</ele>
        <time>2012-03-21T15:03:34Z</time>
      </trkpt>
      <trkpt lat="59.9584861" lon="17.7116326">
        <ele>42.916</ele>
        <time>2012-03-21T15:03:41Z</time>
      </trkpt>
      <trkpt lat="59.958467" lon="17.7117713">
        <ele>42.4354</ele>
        <time>2012-03-21T15:03:46Z</time>
      </trkpt>
      <trkpt lat="59.9584477" lon="17.7119569">
        <ele>41.9547</ele>
        <time>2012-03-21T15:03:53Z</time>
      </trkpt>
      <trkpt lat="59.9584265" lon="17.7121469">
        <ele>42.916</ele>
        <time>2012-03-21T15:04:00Z</time>
      </trkpt>
      <trkpt lat="59.9584104" lon="17.7123007">
        <ele>42.4354</ele>
        <time>2012-03-21T15:04:05Z</time>
      </trkpt>
      <trkpt lat="59.958398" lon="17.7124541">
        <ele>41.9547</ele>
        <time>2012-03-21T15:04:10Z</time>
      </trkpt>
      <trkpt lat="59.9583721" lon="17.7126939">
        <ele>39.5513</ele>
        <time>2012-03-21T15:04:18Z</time>
      </trkpt>
      <trkpt lat="59.9583665" lon="17.7127282">
        <ele>39.0707</ele>
        <time>2012-03-21T15:04:19Z</time>
      </trkpt>
      <trkpt lat="59.958346" lon="17.7128861">
        <ele>38.1094</ele>
        <time>2012-03-21T15:04:24Z</time>
      </trkpt>
      <trkpt lat="59.9583413" lon="17.7129831">
        <ele>38.5901</ele>
        <time>2012-03-21T15:04:27Z</time>
      </trkpt>
      <trkpt lat="59.9583213" lon="17.713113">
        <ele>39.5513</ele>
        <time>2012-03-21T15:04:32Z</time>
      </trkpt>
      <trkpt lat="59.9582991" lon="17.7132861">
        <ele>39.5513</ele>
        <time>2012-03-21T15:04:38Z</time>
      </trkpt>
      <trkpt lat="59.9582932" lon="17.7133576">
        <ele>40.5128</ele>
        <time>2012-03-21T15:04:40Z</time>
      </trkpt>
      <trkpt lat="59.9582804" lon="17.713418">
        <ele>39.5513</ele>
        <time>2012-03-21T15:04:42Z</time>
      </trkpt>
      <trkpt lat="59.9582665" lon="17.7135912">
        <ele>39.0707</ele>
        <time>2012-03-21T15:04:48Z</time>
      </trkpt>
      <trkpt lat="59.9582491" lon="17.7136573">
        <ele>39.5513</ele>
        <time>2012-03-21T15:04:50Z</time>
      </trkpt>
      <trkpt lat="59.9582239" lon="17.7137292">
        <ele>39.5513</ele>
        <time>2012-03-21T15:04:52Z</time>
      </trkpt>
      <trkpt lat="59.9582121" lon="17.7138361">
        <ele>40.5128</ele>
        <time>2012-03-21T15:04:56Z</time>
      </trkpt>
      <trkpt lat="59.9582098" lon="17.713906">
        <ele>41.474</ele>
        <time>2012-03-21T15:04:59Z</time>
      </trkpt>
      <trkpt lat="59.9581787" lon="17.7140117">
        <ele>43.8773</ele>
        <time>2012-03-21T15:05:05Z</time>
      </trkpt>
      <trkpt lat="59.9581146" lon="17.7141028">
        <ele>41.474</ele>
        <time>2012-03-21T15:05:10Z</time>
      </trkpt>
      <trkpt lat="59.9580534" lon="17.7141884">
        <ele>40.9934</ele>
        <time>2012-03-21T15:05:15Z</time>
      </trkpt>
      <trkpt lat="59.9580095" lon="17.7142422">
        <ele>40.5128</ele>
        <time>2012-03-21T15:05:18Z</time>
      </trkpt>
      <trkpt lat="59.9579425" lon="17.7143733">
        <ele>40.0321</ele>
        <time>2012-03-21T15:05:25Z</time>
      </trkpt>
      <trkpt lat="59.9578413" lon="17.71455">
        <ele>38.1094</ele>
        <time>2012-03-21T15:05:32Z</time>
      </trkpt>
      <trkpt lat="59.9578316" lon="17.7145676">
        <ele>37.1481</ele>
        <time>2012-03-21T15:05:33Z</time>
      </trkpt>
      <trkpt lat="59.9578048" lon="17.7146203">
        <ele>37.1481</ele>
        <time>2012-03-21T15:05:36Z</time>
      </trkpt>
      <trkpt lat="59.957769" lon="17.7146756">
        <ele>36.1868</ele>
        <time>2012-03-21T15:05:40Z</time>
      </trkpt>
      <trkpt lat="59.9577483" lon="17.7147251">
        <ele>36.1868</ele>
        <time>2012-03-21T15:05:42Z</time>
      </trkpt>
      <trkpt lat="59.9576773" lon="17.7148818">
        <ele>37.1481</ele>
        <time>2012-03-21T15:05:48Z</time>
      </trkpt>
      <trkpt lat="59.9576569" lon="17.7149367">
        <ele>37.1481</ele>
        <time>2012-03-21T15:05:50Z</time>
      </trkpt>
      <trkpt lat="59.9575771" lon="17.7150845">
        <ele>39.0707</ele>
        <time>2012-03-21T15:05:57Z</time>
      </trkpt>
      <trkpt lat="59.9574897" lon="17.7152206">
        <ele>39.0707</ele>
        <time>2012-03-21T15:06:04Z</time>
      </trkpt>
      <trkpt lat="59.957405" lon="17.7153844">
        <ele>39.0707</ele>
        <time>2012-03-21T15:06:12Z</time>
      </trkpt>
      <trkpt lat="59.9573374" lon="17.7155176">
        <ele>39.0707</ele>
        <time>2012-03-21T15:06:18Z</time>
      </trkpt>
      <trkpt lat="59.9572453" lon="17.7157021">
        <ele>39.5513</ele>
        <time>2012-03-21T15:06:26Z</time>
      </trkpt>
      <trkpt lat="59.9572091" lon="17.7157538">
        <ele>39.0707</ele>
        <time>2012-03-21T15:06:29Z</time>
      </trkpt>
      <trkpt lat="59.9571559" lon="17.7158784">
        <ele>38.5901</ele>
        <time>2012-03-21T15:06:34Z</time>
      </trkpt>
      <trkpt lat="59.9570958" lon="17.7159548">
        <ele>37.1481</ele>
        <time>2012-03-21T15:06:39Z</time>
      </trkpt>
      <trkpt lat="59.9570273" lon="17.7160654">
        <ele>36.6675</ele>
        <time>2012-03-21T15:06:45Z</time>
      </trkpt>
      <trkpt lat="59.9569818" lon="17.7161563">
        <ele>36.6675</ele>
        <time>2012-03-21T15:06:50Z</time>
      </trkpt>
      <trkpt lat="59.9569387" lon="17.7162292">
        <ele>37.6287</ele>
        <time>2012-03-21T15:06:54Z</time>
      </trkpt>
      <trkpt lat="59.9568947" lon="17.7163246">
        <ele>38.1094</ele>
        <time>2012-03-21T15:06:58Z</time>
      </trkpt>
      <trkpt lat="59.9568707" lon="17.7163692">
        <ele>38.5901</ele>
        <time>2012-03-21T15:07:00Z</time>
      </trkpt>
      <trkpt lat="59.9568044" lon="17.7164923">
        <ele>40.5128</ele>
        <time>2012-03-21T15:07:06Z</time>
      </trkpt>
      <trkpt lat="59.956786" lon="17.7165219">
        <ele>40.9934</ele>
        <time>2012-03-21T15:07:08Z</time>
      </trkpt>
      <trkpt lat="59.9567246" lon="17.7167225">
        <ele>43.8773</ele>
        <time>2012-03-21T15:07:16Z</time>
      </trkpt>
      <trkpt lat="59.956656" lon="17.7168612">
        <ele>45.3192</ele>
        <time>2012-03-21T15:07:22Z</time>
      </trkpt>
      <trkpt lat="59.9566352" lon="17.7168863">
        <ele>45.7999</ele>
        <time>2012-03-21T15:07:24Z</time>
      </trkpt>
      <trkpt lat="59.9565741" lon="17.71684">
        <ele>45.3192</ele>
        <time>2012-03-21T15:07:29Z</time>
      </trkpt>
      <trkpt lat="59.9565109" lon="17.7166971">
        <ele>43.8773</ele>
        <time>2012-03-21T15:07:36Z</time>
      </trkpt>
      <trkpt lat="59.956482" lon="17.716654">
        <ele>43.3966</ele>
        <time>2012-03-21T15:07:39Z</time>
      </trkpt>
      <trkpt lat="59.9564103" lon="17.7165482">
        <ele>43.8773</ele>
        <time>2012-03-21T15:07:46Z</time>
      </trkpt>
      <trkpt lat="59.9563701" lon="17.716507">
        <ele>43.8773</ele>
        <time>2012-03-21T15:07:50Z</time>
      </trkpt>
      <trkpt lat="59.9563225" lon="17.7164304">
        <ele>43.8773</ele>
        <time>2012-03-21T15:07:54Z</time>
      </trkpt>
      <trkpt lat="59.9562819" lon="17.7163252">
        <ele>44.8386</ele>
        <time>2012-03-21T15:07:58Z</time>
      </trkpt>
      <trkpt lat="59.9562741" lon="17.7162991">
        <ele>44.358</ele>
        <time>2012-03-21T15:07:59Z</time>
      </trkpt>
      <trkpt lat="59.9562332" lon="17.716078">
        <ele>42.916</ele>
        <time>2012-03-21T15:08:05Z</time>
      </trkpt>
      <trkpt lat="59.956226" lon="17.716059">
        <ele>43.3966</ele>
        <time>2012-03-21T15:08:06Z</time>
      </trkpt>
      <trkpt lat="59.9561944" lon="17.7159501">
        <ele>41.9547</ele>
        <time>2012-03-21T15:08:11Z</time>
      </trkpt>
      <trkpt lat="59.9561584" lon="17.7158859">
        <ele>41.474</ele>
        <time>2012-03-21T15:08:14Z</time>
      </trkpt>
      <trkpt lat="59.9561103" lon="17.7157911">
        <ele>40.5128</ele>
        <time>2012-03-21T15:08:20Z</time>
      </trkpt>
      <trkpt lat="59.9560882" lon="17.7157503">
        <ele>40.0321</ele>
        <time>2012-03-21T15:08:22Z</time>
      </trkpt>
      <trkpt lat="59.956016" lon="17.7156057">
        <ele>41.474</ele>
        <time>2012-03-21T15:08:29Z</time>
      </trkpt>
      <trkpt lat="59.9559509" lon="17.7154568">
        <ele>41.474</ele>
        <time>2012-03-21T15:08:35Z</time>
      </trkpt>
      <trkpt lat="59.9559091" lon="17.7153383">
        <ele>41.9547</ele>
        <time>2012-03-21T15:08:40Z</time>
      </trkpt>
      <trkpt lat="59.9558763" lon="17.7152549">
        <ele>42.4354</ele>
        <time>2012-03-21T15:08:44Z</time>
      </trkpt>
      <trkpt lat="59.9558354" lon="17.71513">
        <ele>41.474</ele>
        <time>2012-03-21T15:08:49Z</time>
      </trkpt>
      <trkpt lat="59.9558024" lon="17.7150348">
        <ele>40.9934</ele>
        <time>2012-03-21T15:08:54Z</time>
      </trkpt>
      <trkpt lat="59.9557396" lon="17.7148908">
        <ele>39.5513</ele>
        <time>2012-03-21T15:09:00Z</time>
      </trkpt>
      <trkpt lat="59.9557153" lon="17.714799">
        <ele>39.0707</ele>
        <time>2012-03-21T15:09:02Z</time>
      </trkpt>
      <trkpt lat="59.9556656" lon="17.7146621">
        <ele>38.5901</ele>
        <time>2012-03-21T15:09:07Z</time>
      </trkpt>
      <trkpt lat="59.955619" lon="17.714507">
        <ele>36.6675</ele>
        <time>2012-03-21T15:09:14Z</time>
      </trkpt>
      <trkpt lat="59.9555903" lon="17.7143458">
        <ele>35.7061</ele>
        <time>2012-03-21T15:09:19Z</time>
      </trkpt>
      <trkpt lat="59.9555723" lon="17.71422">
        <ele>35.7061</ele>
        <time>2012-03-21T15:09:23Z</time>
      </trkpt>
      <trkpt lat="59.9555464" lon="17.7140904">
        <ele>35.7061</ele>
        <time>2012-03-21T15:09:28Z</time>
      </trkpt>
      <trkpt lat="59.9555317" lon="17.7139348">
        <ele>35.2255</ele>
        <time>2012-03-21T15:09:33Z</time>
      </trkpt>
      <trkpt lat="59.9555065" lon="17.7138386">
        <ele>37.6287</ele>
        <time>2012-03-21T15:09:38Z</time>
      </trkpt>
      <trkpt lat="59.9554645" lon="17.7136128">
        <ele>37.6287</ele>
        <time>2012-03-21T15:09:46Z</time>
      </trkpt>
      <trkpt lat="59.9554505" lon="17.7134366">
        <ele>40.5128</ele>
        <time>2012-03-21T15:09:52Z</time>
      </trkpt>
      <trkpt lat="59.9553951" lon="17.713205">
        <ele>40.0321</ele>
        <time>2012-03-21T15:10:00Z</time>
      </trkpt>
      <trkpt lat="59.9553521" lon="17.7130385">
        <ele>40.0321</ele>
        <time>2012-03-21T15:10:06Z</time>
      </trkpt>
      <trkpt lat="59.9553343" lon="17.712961">
        <ele>40.0321</ele>
        <time>2012-03-21T15:10:09Z</time>
      </trkpt>
      <trkpt lat="59.9552991" lon="17.7128224">
        <ele>40.5128</ele>
        <time>2012-03-21T15:10:14Z</time>
      </trkpt>
      <trkpt lat="59.9552504" lon="17.7126403">
        <ele>41.474</ele>
        <time>2012-03-21T15:10:20Z</time>
      </trkpt>
      <trkpt lat="59.9551594" lon="17.7124363">
        <ele>42.4354</ele>
        <time>2012-03-21T15:10:27Z</time>
      </trkpt>
      <trkpt lat="59.955081" lon="17.7122665">
        <ele>44.8386</ele>
        <time>2012-03-21T15:10:33Z</time>
      </trkpt>
      <trkpt lat="59.9550366" lon="17.7121536">
        <ele>46.2806</ele>
        <time>2012-03-21T15:10:38Z</time>
      </trkpt>
      <trkpt lat="59.9550253" lon="17.7121288">
        <ele>46.7612</ele>
        <time>2012-03-21T15:10:39Z</time>
      </trkpt>
      <trkpt lat="59.955005" lon="17.7120508">
        <ele>49.1646</ele>
        <time>2012-03-21T15:10:42Z</time>
      </trkpt>
      <trkpt lat="59.9549678" lon="17.7118454">
        <ele>48.2034</ele>
        <time>2012-03-21T15:10:49Z</time>
      </trkpt>
      <trkpt lat="59.9549336" lon="17.7117402">
        <ele>48.2034</ele>
        <time>2012-03-21T15:10:54Z</time>
      </trkpt>
      <trkpt lat="59.9549267" lon="17.7117111">
        <ele>47.7225</ele>
        <time>2012-03-21T15:10:55Z</time>
      </trkpt>
      <trkpt lat="59.9548781" lon="17.7115361">
        <ele>46.7612</ele>
        <time>2012-03-21T15:11:02Z</time>
      </trkpt>
      <trkpt lat="59.9548381" lon="17.7114092">
        <ele>45.7999</ele>
        <time>2012-03-21T15:11:07Z</time>
      </trkpt>
      <trkpt lat="59.9548009" lon="17.7112818">
        <ele>43.8773</ele>
        <time>2012-03-21T15:11:12Z</time>
      </trkpt>
      <trkpt lat="59.9547833" lon="17.7112303">
        <ele>43.8773</ele>
        <time>2012-03-21T15:11:14Z</time>
      </trkpt>
      <trkpt lat="59.9547344" lon="17.7111021">
        <ele>42.916</ele>
        <time>2012-03-21T15:11:20Z</time>
      </trkpt>
      <trkpt lat="59.9547057" lon="17.711041">
        <ele>42.916</ele>
        <time>2012-03-21T15:11:23Z</time>
      </trkpt>
      <trkpt lat="59.9546471" lon="17.7109416">
        <ele>42.916</ele>
        <time>2012-03-21T15:11:29Z</time>
      </trkpt>
      <trkpt lat="59.9546365" lon="17.7109238">
        <ele>42.916</ele>
        <time>2012-03-21T15:11:30Z</time>
      </trkpt>
      <trkpt lat="59.9545952" lon="17.7108418">
        <ele>42.916</ele>
        <time>2012-03-21T15:11:34Z</time>
      </trkpt>
      <trkpt lat="59.954528" lon="17.7107067">
        <ele>41.474</ele>
        <time>2012-03-21T15:11:41Z</time>
      </trkpt>
      <trkpt lat="59.9544575" lon="17.7106182">
        <ele>41.474</ele>
        <time>2012-03-21T15:11:46Z</time>
      </trkpt>
      <trkpt lat="59.9544434" lon="17.7105987">
        <ele>41.474</ele>
        <time>2012-03-21T15:11:47Z</time>
      </trkpt>
      <trkpt lat="59.9543669" lon="17.7104737">
        <ele>41.474</ele>
        <time>2012-03-21T15:11:53Z</time>
      </trkpt>
      <trkpt lat="59.954342" lon="17.7104203">
        <ele>40.9934</ele>
        <time>2012-03-21T15:11:56Z</time>
      </trkpt>
      <trkpt lat="59.9542533" lon="17.7103105">
        <ele>40.9934</ele>
        <time>2012-03-21T15:12:03Z</time>
      </trkpt>
      <trkpt lat="59.9541803" lon="17.7102015">
        <ele>39.0707</ele>
        <time>2012-03-21T15:12:10Z</time>
      </trkpt>
      <trkpt lat="59.9541027" lon="17.7101032">
        <ele>38.1094</ele>
        <time>2012-03-21T15:12:16Z</time>
      </trkpt>
      <trkpt lat="59.9540053" lon="17.7099796">
        <ele>38.1094</ele>
        <time>2012-03-21T15:12:23Z</time>
      </trkpt>
      <trkpt lat="59.9539297" lon="17.7098995">
        <ele>39.5513</ele>
        <time>2012-03-21T15:12:28Z</time>
      </trkpt>
      <trkpt lat="59.9538141" lon="17.7097643">
        <ele>40.5128</ele>
        <time>2012-03-21T15:12:37Z</time>
      </trkpt>
      <trkpt lat="59.9537478" lon="17.7096878">
        <ele>40.5128</ele>
        <time>2012-03-21T15:12:42Z</time>
      </trkpt>
      <trkpt lat="59.9536623" lon="17.7096376">
        <ele>41.9547</ele>
        <time>2012-03-21T15:12:48Z</time>
      </trkpt>
      <trkpt lat="59.9536111" lon="17.7096168">
        <ele>43.3966</ele>
        <time>2012-03-21T15:12:52Z</time>
      </trkpt>
      <trkpt lat="59.9535577" lon="17.7095765">
        <ele>44.8386</ele>
        <time>2012-03-21T15:12:56Z</time>
      </trkpt>
      <trkpt lat="59.9534572" lon="17.7095019">
        <ele>44.8386</ele>
        <time>2012-03-21T15:13:03Z</time>
      </trkpt>
      <trkpt lat="59.9534294" lon="17.70948">
        <ele>44.358</ele>
        <time>2012-03-21T15:13:05Z</time>
      </trkpt>
      <trkpt lat="59.9533858" lon="17.7094425">
        <ele>42.4354</ele>
        <time>2012-03-21T15:13:09Z</time>
      </trkpt>
      <trkpt lat="59.9533542" lon="17.7094185">
        <ele>40.9934</ele>
        <time>2012-03-21T15:13:12Z</time>
      </trkpt>
      <trkpt lat="59.9532714" lon="17.7093656">
        <ele>38.1094</ele>
        <time>2012-03-21T15:13:18Z</time>
      </trkpt>
      <trkpt lat="59.9532043" lon="17.7093357">
        <ele>37.6287</ele>
        <time>2012-03-21T15:13:23Z</time>
      </trkpt>
      <trkpt lat="59.9531911" lon="17.7093221">
        <ele>37.6287</ele>
        <time>2012-03-21T15:13:24Z</time>
      </trkpt>
      <trkpt lat="59.9530818" lon="17.7092346">
        <ele>37.1481</ele>
        <time>2012-03-21T15:13:32Z</time>
      </trkpt>
      <trkpt lat="59.953034" lon="17.7092107">
        <ele>36.6675</ele>
        <time>2012-03-21T15:13:35Z</time>
      </trkpt>
      <trkpt lat="59.9529264" lon="17.70917">
        <ele>37.6287</ele>
        <time>2012-03-21T15:13:41Z</time>
      </trkpt>
      <trkpt lat="59.9528501" lon="17.7091984">
        <ele>38.1094</ele>
        <time>2012-03-21T15:13:46Z</time>
      </trkpt>
      <trkpt lat="59.9527719" lon="17.7092067">
        <ele>37.6287</ele>
        <time>2012-03-21T15:13:51Z</time>
      </trkpt>
      <trkpt lat="59.9526807" lon="17.7091625">
        <ele>37.6287</ele>
        <time>2012-03-21T15:13:57Z</time>
      </trkpt>
      <trkpt lat="59.952574" lon="17.7091181">
        <ele>36.6675</ele>
        <time>2012-03-21T15:14:04Z</time>
      </trkpt>
      <trkpt lat="59.9524762" lon="17.7090616">
        <ele>36.1868</ele>
        <time>2012-03-21T15:14:11Z</time>
      </trkpt>
      <trkpt lat="59.9524523" lon="17.7090363">
        <ele>35.7061</ele>
        <time>2012-03-21T15:14:13Z</time>
      </trkpt>
      <trkpt lat="59.9523694" lon="17.7090215">
        <ele>36.1868</ele>
        <time>2012-03-21T15:14:19Z</time>
      </trkpt>
      <trkpt lat="59.9523219" lon="17.7090228">
        <ele>36.6675</ele>
        <time>2012-03-21T15:14:22Z</time>
      </trkpt>
      <trkpt lat="59.9522416" lon="17.7090517">
        <ele>38.5901</ele>
        <time>2012-03-21T15:14:27Z</time>
      </trkpt>
      <trkpt lat="59.9521152" lon="17.7090688">
        <ele>41.474</ele>
        <time>2012-03-21T15:14:34Z</time>
      </trkpt>
      <trkpt lat="59.9520476" lon="17.7090348">
        <ele>41.9547</ele>
        <time>2012-03-21T15:14:38Z</time>
      </trkpt>
      <trkpt lat="59.9519546" lon="17.7089935">
        <ele>41.9547</ele>
        <time>2012-03-21T15:14:44Z</time>
      </trkpt>
      <trkpt lat="59.951896" lon="17.7089817">
        <ele>42.4354</ele>
        <time>2012-03-21T15:14:48Z</time>
      </trkpt>
      <trkpt lat="59.9518338" lon="17.708955">
        <ele>43.3966</ele>
        <time>2012-03-21T15:14:52Z</time>
      </trkpt>
      <trkpt lat="59.951788" lon="17.7089601">
        <ele>43.8773</ele>
        <time>2012-03-21T15:14:55Z</time>
      </trkpt>
      <trkpt lat="59.9517162" lon="17.7089139">
        <ele>43.8773</ele>
        <time>2012-03-21T15:15:00Z</time>
      </trkpt>
      <trkpt lat="59.9516422" lon="17.7088993">
        <ele>43.3966</ele>
        <time>2012-03-21T15:15:05Z</time>
      </trkpt>
      <trkpt lat="59.9515751" lon="17.7089089">
        <ele>43.3966</ele>
        <time>2012-03-21T15:15:10Z</time>
      </trkpt>
      <trkpt lat="59.9514868" lon="17.7088526">
        <ele>42.4354</ele>
        <time>2012-03-21T15:15:17Z</time>
      </trkpt>
      <trkpt lat="59.9514291" lon="17.7088138">
        <ele>40.9934</ele>
        <time>2012-03-21T15:15:22Z</time>
      </trkpt>
      <trkpt lat="59.951365" lon="17.7087818">
        <ele>40.9934</ele>
        <time>2012-03-21T15:15:26Z</time>
      </trkpt>
      <trkpt lat="59.951307" lon="17.7087628">
        <ele>40.0321</ele>
        <time>2012-03-21T15:15:31Z</time>
      </trkpt>
      <trkpt lat="59.9512127" lon="17.7087462">
        <ele>40.5128</ele>
        <time>2012-03-21T15:15:37Z</time>
      </trkpt>
      <trkpt lat="59.951181" lon="17.7087382">
        <ele>40.5128</ele>
        <time>2012-03-21T15:15:39Z</time>
      </trkpt>
      <trkpt lat="59.9510613" lon="17.7086886">
        <ele>40.9934</ele>
        <time>2012-03-21T15:15:47Z</time>
      </trkpt>
      <trkpt lat="59.9509835" lon="17.7086477">
        <ele>41.474</ele>
        <time>2012-03-21T15:15:52Z</time>
      </trkpt>
      <trkpt lat="59.9509398" lon="17.7086197">
        <ele>41.474</ele>
        <time>2012-03-21T15:15:55Z</time>
      </trkpt>
      <trkpt lat="59.9508759" lon="17.7085545">
        <ele>42.4354</ele>
        <time>2012-03-21T15:16:00Z</time>
      </trkpt>
      <trkpt lat="59.9507998" lon="17.7084642">
        <ele>43.3966</ele>
        <time>2012-03-21T15:16:06Z</time>
      </trkpt>
      <trkpt lat="59.950735" lon="17.7083514">
        <ele>43.3966</ele>
        <time>2012-03-21T15:16:11Z</time>
      </trkpt>
      <trkpt lat="59.9507051" lon="17.7082942">
        <ele>43.8773</ele>
        <time>2012-03-21T15:16:14Z</time>
      </trkpt>
      <trkpt lat="59.950662" lon="17.7081917">
        <ele>43.8773</ele>
        <time>2012-03-21T15:16:18Z</time>
      </trkpt>
      <trkpt lat="59.9505833" lon="17.7080593">
        <ele>45.3192</ele>
        <time>2012-03-21T15:16:25Z</time>
      </trkpt>
      <trkpt lat="59.9505404" lon="17.7080043">
        <ele>46.2806</ele>
        <time>2012-03-21T15:16:28Z</time>
      </trkpt>
      <trkpt lat="59.9504842" lon="17.7078568">
        <ele>47.2418</ele>
        <time>2012-03-21T15:16:34Z</time>
      </trkpt>
      <trkpt lat="59.9504191" lon="17.7076795">
        <ele>48.684</ele>
        <time>2012-03-21T15:16:41Z</time>
      </trkpt>
      <trkpt lat="59.9503488" lon="17.7075485">
        <ele>51.5679</ele>
        <time>2012-03-21T15:16:46Z</time>
      </trkpt>
      <trkpt lat="59.9503103" lon="17.7073476">
        <ele>53.0098</ele>
        <time>2012-03-21T15:16:53Z</time>
      </trkpt>
      <trkpt lat="59.9502979" lon="17.7072604">
        <ele>53.0098</ele>
        <time>2012-03-21T15:16:56Z</time>
      </trkpt>
      <trkpt lat="59.9502803" lon="17.7071548">
        <ele>53.0098</ele>
        <time>2012-03-21T15:17:00Z</time>
      </trkpt>
      <trkpt lat="59.9502451" lon="17.7070149">
        <ele>53.4905</ele>
        <time>2012-03-21T15:17:05Z</time>
      </trkpt>
      <trkpt lat="59.9502341" lon="17.7069559">
        <ele>53.4905</ele>
        <time>2012-03-21T15:17:07Z</time>
      </trkpt>
      <trkpt lat="59.9502195" lon="17.7068931">
        <ele>53.4905</ele>
        <time>2012-03-21T15:17:09Z</time>
      </trkpt>
      <trkpt lat="59.9502042" lon="17.7067462">
        <ele>53.0098</ele>
        <time>2012-03-21T15:17:13Z</time>
      </trkpt>
      <trkpt lat="59.9502227" lon="17.706527">
        <ele>49.6453</ele>
        <time>2012-03-21T15:17:21Z</time>
      </trkpt>
      <trkpt lat="59.9502599" lon="17.7064208">
        <ele>45.3192</ele>
        <time>2012-03-21T15:17:26Z</time>
      </trkpt>
      <trkpt lat="59.9502974" lon="17.7062357">
        <ele>43.3966</ele>
        <time>2012-03-21T15:17:33Z</time>
      </trkpt>
      <trkpt lat="59.9503221" lon="17.706166">
        <ele>42.4354</ele>
        <time>2012-03-21T15:17:36Z</time>
      </trkpt>
      <trkpt lat="59.9503648" lon="17.7060918">
        <ele>40.9934</ele>
        <time>2012-03-21T15:17:39Z</time>
      </trkpt>
      <trkpt lat="59.9504461" lon="17.705886">
        <ele>40.9934</ele>
        <time>2012-03-21T15:17:47Z</time>
      </trkpt>
      <trkpt lat="59.9504562" lon="17.7058549">
        <ele>40.9934</ele>
        <time>2012-03-21T15:17:48Z</time>
      </trkpt>
      <trkpt lat="59.9505261" lon="17.7056962">
        <ele>42.4354</ele>
        <time>2012-03-21T15:17:54Z</time>
      </trkpt>
      <trkpt lat="59.950535" lon="17.7056764">
        <ele>41.9547</ele>
        <time>2012-03-21T15:17:55Z</time>
      </trkpt>
      <trkpt lat="59.9505769" lon="17.7055451">
        <ele>40.0321</ele>
        <time>2012-03-21T15:18:00Z</time>
      </trkpt>
      <trkpt lat="59.9505838" lon="17.7054916">
        <ele>39.0707</ele>
        <time>2012-03-21T15:18:02Z</time>
      </trkpt>
      <trkpt lat="59.9506615" lon="17.7052885">
        <ele>43.3966</ele>
        <time>2012-03-21T15:18:10Z</time>
      </trkpt>
      <trkpt lat="59.9506947" lon="17.7051017">
        <ele>43.3966</ele>
        <time>2012-03-21T15:18:15Z</time>
      </trkpt>
      <trkpt lat="59.9507492" lon="17.7049414">
        <ele>43.3966</ele>
        <time>2012-03-21T15:18:21Z</time>
      </trkpt>
      <trkpt lat="59.9507998" lon="17.704813">
        <ele>42.4354</ele>
        <time>2012-03-21T15:18:26Z</time>
      </trkpt>
      <trkpt lat="59.9508597" lon="17.7046599">
        <ele>40.9934</ele>
        <time>2012-03-21T15:18:32Z</time>
      </trkpt>
      <trkpt lat="59.9508826" lon="17.704605">
        <ele>40.0321</ele>
        <time>2012-03-21T15:18:34Z</time>
      </trkpt>
      <trkpt lat="59.9509505" lon="17.7044927">
        <ele>39.5513</ele>
        <time>2012-03-21T15:18:40Z</time>
      </trkpt>
      <trkpt lat="59.9509646" lon="17.7044679">
        <ele>39.0707</ele>
        <time>2012-03-21T15:18:41Z</time>
      </trkpt>
      <trkpt lat="59.9510449" lon="17.7043317">
        <ele>39.0707</ele>
        <time>2012-03-21T15:18:47Z</time>
      </trkpt>
      <trkpt lat="59.9511117" lon="17.7042057">
        <ele>39.0707</ele>
        <time>2012-03-21T15:18:53Z</time>
      </trkpt>
      <trkpt lat="59.9511997" lon="17.7040405">
        <ele>37.6287</ele>
        <time>2012-03-21T15:19:01Z</time>
      </trkpt>
      <trkpt lat="59.9512726" lon="17.7038963">
        <ele>37.1481</ele>
        <time>2012-03-21T15:19:07Z</time>
      </trkpt>
      <trkpt lat="59.9513546" lon="17.7037583">
        <ele>36.1868</ele>
        <time>2012-03-21T15:19:13Z</time>
      </trkpt>
      <trkpt lat="59.9514373" lon="17.7036173">
        <ele>36.6675</ele>
        <time>2012-03-21T15:19:20Z</time>
      </trkpt>
      <trkpt lat="59.951516" lon="17.7035006">
        <ele>36.1868</ele>
        <time>2012-03-21T15:19:25Z</time>
      </trkpt>
      <trkpt lat="59.9515276" lon="17.703479">
        <ele>36.1868</ele>
        <time>2012-03-21T15:19:26Z</time>
      </trkpt>
      <trkpt lat="59.9515933" lon="17.7033246">
        <ele>34.7449</ele>
        <time>2012-03-21T15:19:32Z</time>
      </trkpt>
      <trkpt lat="59.9516604" lon="17.7032217">
        <ele>34.2642</ele>
        <time>2012-03-21T15:19:37Z</time>
      </trkpt>
      <trkpt lat="59.9517151" lon="17.7031261">
        <ele>33.3029</ele>
        <time>2012-03-21T15:19:41Z</time>
      </trkpt>
      <trkpt lat="59.9517763" lon="17.7030124">
        <ele>34.2642</ele>
        <time>2012-03-21T15:19:47Z</time>
      </trkpt>
      <trkpt lat="59.9517841" lon="17.7029672">
        <ele>34.2642</ele>
        <time>2012-03-21T15:19:49Z</time>
      </trkpt>
      <trkpt lat="59.9518053" lon="17.702842">
        <ele>33.7834</ele>
        <time>2012-03-21T15:19:52Z</time>
      </trkpt>
      <trkpt lat="59.9518584" lon="17.7027811">
        <ele>31.3801</ele>
        <time>2012-03-21T15:19:56Z</time>
      </trkpt>
      <trkpt lat="59.9518669" lon="17.7027163">
        <ele>25.6123</ele>
        <time>2012-03-21T15:20:00Z</time>
      </trkpt>
      <trkpt lat="59.9519378" lon="17.7026127">
        <ele>30.4188</ele>
        <time>2012-03-21T15:20:05Z</time>
      </trkpt>
      <trkpt lat="59.9520146" lon="17.7024159">
        <ele>30.8995</ele>
        <time>2012-03-21T15:20:12Z</time>
      </trkpt>
      <trkpt lat="59.9521157" lon="17.7021833">
        <ele>29.9381</ele>
        <time>2012-03-21T15:20:21Z</time>
      </trkpt>
      <trkpt lat="59.9521705" lon="17.7020311">
        <ele>28.4962</ele>
        <time>2012-03-21T15:20:27Z</time>
      </trkpt>
      <trkpt lat="59.952228" lon="17.7018782">
        <ele>29.4575</ele>
        <time>2012-03-21T15:20:33Z</time>
      </trkpt>
      <trkpt lat="59.9523212" lon="17.7017012">
        <ele>30.4188</ele>
        <time>2012-03-21T15:20:41Z</time>
      </trkpt>
      <trkpt lat="59.9523941" lon="17.7015329">
        <ele>32.8223</ele>
        <time>2012-03-21T15:20:48Z</time>
      </trkpt>
      <trkpt lat="59.9524906" lon="17.7012788">
        <ele>34.2642</ele>
        <time>2012-03-21T15:20:58Z</time>
      </trkpt>
      <trkpt lat="59.9525296" lon="17.701203">
        <ele>33.7834</ele>
        <time>2012-03-21T15:21:02Z</time>
      </trkpt>
      <trkpt lat="59.9525904" lon="17.7010029">
        <ele>32.8223</ele>
        <time>2012-03-21T15:21:09Z</time>
      </trkpt>
      <trkpt lat="59.9526346" lon="17.7008552">
        <ele>31.8607</ele>
        <time>2012-03-21T15:21:15Z</time>
      </trkpt>
      <trkpt lat="59.952685" lon="17.7006731">
        <ele>32.3416</ele>
        <time>2012-03-21T15:21:22Z</time>
      </trkpt>
      <trkpt lat="59.9527389" lon="17.7005144">
        <ele>32.8223</ele>
        <time>2012-03-21T15:21:28Z</time>
      </trkpt>
      <trkpt lat="59.9527946" lon="17.7003398">
        <ele>31.8607</ele>
        <time>2012-03-21T15:21:35Z</time>
      </trkpt>
      <trkpt lat="59.9528028" lon="17.700316">
        <ele>31.8607</ele>
        <time>2012-03-21T15:21:36Z</time>
      </trkpt>
      <trkpt lat="59.9528636" lon="17.7001252">
        <ele>34.7449</ele>
        <time>2012-03-21T15:21:43Z</time>
      </trkpt>
      <trkpt lat="59.9529305" lon="17.6999342">
        <ele>35.2255</ele>
        <time>2012-03-21T15:21:50Z</time>
      </trkpt>
      <trkpt lat="59.9529931" lon="17.6998266">
        <ele>35.7061</ele>
        <time>2012-03-21T15:21:55Z</time>
      </trkpt>
      <trkpt lat="59.9530507" lon="17.699786">
        <ele>37.1481</ele>
        <time>2012-03-21T15:21:59Z</time>
      </trkpt>
      <trkpt lat="59.953132" lon="17.6996545">
        <ele>37.1481</ele>
        <time>2012-03-21T15:22:06Z</time>
      </trkpt>
      <trkpt lat="59.9531977" lon="17.6995134">
        <ele>36.6675</ele>
        <time>2012-03-21T15:22:12Z</time>
      </trkpt>
      <trkpt lat="59.953261" lon="17.6993277">
        <ele>35.7061</ele>
        <time>2012-03-21T15:22:19Z</time>
      </trkpt>
      <trkpt lat="59.9532671" lon="17.6993049">
        <ele>35.7061</ele>
        <time>2012-03-21T15:22:20Z</time>
      </trkpt>
      <trkpt lat="59.9533255" lon="17.6991277">
        <ele>34.7449</ele>
        <time>2012-03-21T15:22:27Z</time>
      </trkpt>
      <trkpt lat="59.9533739" lon="17.6990025">
        <ele>33.3029</ele>
        <time>2012-03-21T15:22:32Z</time>
      </trkpt>
      <trkpt lat="59.9534354" lon="17.6988397">
        <ele>32.3416</ele>
        <time>2012-03-21T15:22:38Z</time>
      </trkpt>
      <trkpt lat="59.9535003" lon="17.6985725">
        <ele>31.3801</ele>
        <time>2012-03-21T15:22:46Z</time>
      </trkpt>
      <trkpt lat="59.9535593" lon="17.6984455">
        <ele>32.3416</ele>
        <time>2012-03-21T15:22:51Z</time>
      </trkpt>
      <trkpt lat="59.9536541" lon="17.6982905">
        <ele>30.8995</ele>
        <time>2012-03-21T15:22:59Z</time>
      </trkpt>
      <trkpt lat="59.9536862" lon="17.6982585">
        <ele>30.4188</ele>
        <time>2012-03-21T15:23:01Z</time>
      </trkpt>
      <trkpt lat="59.9538021" lon="17.6981704">
        <ele>27.5349</ele>
        <time>2012-03-21T15:23:08Z</time>
      </trkpt>
      <trkpt lat="59.9538173" lon="17.698158">
        <ele>28.0155</ele>
        <time>2012-03-21T15:23:09Z</time>
      </trkpt>
      <trkpt lat="59.9539412" lon="17.6980345">
        <ele>30.4188</ele>
        <time>2012-03-21T15:23:17Z</time>
      </trkpt>
      <trkpt lat="59.9540277" lon="17.6979223">
        <ele>30.8995</ele>
        <time>2012-03-21T15:23:24Z</time>
      </trkpt>
      <trkpt lat="59.9540737" lon="17.6978268">
        <ele>31.3801</ele>
        <time>2012-03-21T15:23:28Z</time>
      </trkpt>
      <trkpt lat="59.9541447" lon="17.6977014">
        <ele>30.8995</ele>
        <time>2012-03-21T15:23:34Z</time>
      </trkpt>
      <trkpt lat="59.9542342" lon="17.6976119">
        <ele>30.8995</ele>
        <time>2012-03-21T15:23:40Z</time>
      </trkpt>
      <trkpt lat="59.9542978" lon="17.6974856">
        <ele>30.4188</ele>
        <time>2012-03-21T15:23:46Z</time>
      </trkpt>
      <trkpt lat="59.9543581" lon="17.6973033">
        <ele>30.8995</ele>
        <time>2012-03-21T15:23:53Z</time>
      </trkpt>
      <trkpt lat="59.9543991" lon="17.6970649">
        <ele>30.8995</ele>
        <time>2012-03-21T15:24:00Z</time>
      </trkpt>
      <trkpt lat="59.9544511" lon="17.6968919">
        <ele>32.3416</ele>
        <time>2012-03-21T15:24:07Z</time>
      </trkpt>
      <trkpt lat="59.9544846" lon="17.6967936">
        <ele>32.3416</ele>
        <time>2012-03-21T15:24:11Z</time>
      </trkpt>
      <trkpt lat="59.9545278" lon="17.6966625">
        <ele>31.3801</ele>
        <time>2012-03-21T15:24:16Z</time>
      </trkpt>
      <trkpt lat="59.9545979" lon="17.6964564">
        <ele>31.8607</ele>
        <time>2012-03-21T15:24:24Z</time>
      </trkpt>
      <trkpt lat="59.9546531" lon="17.6962236">
        <ele>32.8223</ele>
        <time>2012-03-21T15:24:32Z</time>
      </trkpt>
      <trkpt lat="59.9547071" lon="17.6960253">
        <ele>33.7834</ele>
        <time>2012-03-21T15:24:39Z</time>
      </trkpt>
      <trkpt lat="59.9547588" lon="17.6957545">
        <ele>32.8223</ele>
        <time>2012-03-21T15:24:48Z</time>
      </trkpt>
      <trkpt lat="59.9547963" lon="17.695501">
        <ele>33.7834</ele>
        <time>2012-03-21T15:24:56Z</time>
      </trkpt>
      <trkpt lat="59.9548345" lon="17.6953126">
        <ele>33.7834</ele>
        <time>2012-03-21T15:25:02Z</time>
      </trkpt>
      <trkpt lat="59.9548562" lon="17.6952343">
        <ele>32.8223</ele>
        <time>2012-03-21T15:25:05Z</time>
      </trkpt>
      <trkpt lat="59.9548901" lon="17.6950784">
        <ele>34.2642</ele>
        <time>2012-03-21T15:25:11Z</time>
      </trkpt>
      <trkpt lat="59.9549147" lon="17.6949109">
        <ele>33.7834</ele>
        <time>2012-03-21T15:25:17Z</time>
      </trkpt>
      <trkpt lat="59.9549299" lon="17.6947125">
        <ele>33.3029</ele>
        <time>2012-03-21T15:25:23Z</time>
      </trkpt>
      <trkpt lat="59.9549565" lon="17.694462">
        <ele>33.7834</ele>
        <time>2012-03-21T15:25:31Z</time>
      </trkpt>
      <trkpt lat="59.9549834" lon="17.694246">
        <ele>33.7834</ele>
        <time>2012-03-21T15:25:38Z</time>
      </trkpt>
      <trkpt lat="59.9550062" lon="17.6940058">
        <ele>34.2642</ele>
        <time>2012-03-21T15:25:46Z</time>
      </trkpt>
      <trkpt lat="59.955046" lon="17.6938754">
        <ele>33.7834</ele>
        <time>2012-03-21T15:25:51Z</time>
      </trkpt>
      <trkpt lat="59.9550877" lon="17.6937539">
        <ele>32.8223</ele>
        <time>2012-03-21T15:25:57Z</time>
      </trkpt>
      <trkpt lat="59.9551457" lon="17.6936052">
        <ele>32.8223</ele>
        <time>2012-03-21T15:26:04Z</time>
      </trkpt>
      <trkpt lat="59.9552217" lon="17.6934149">
        <ele>31.3801</ele>
        <time>2012-03-21T15:26:12Z</time>
      </trkpt>
      <trkpt lat="59.9552835" lon="17.6932628">
        <ele>31.3801</ele>
        <time>2012-03-21T15:26:18Z</time>
      </trkpt>
      <trkpt lat="59.9553537" lon="17.6931576">
        <ele>31.3801</ele>
        <time>2012-03-21T15:26:24Z</time>
      </trkpt>
      <trkpt lat="59.9554153" lon="17.6930618">
        <ele>32.8223</ele>
        <time>2012-03-21T15:26:30Z</time>
      </trkpt>
      <trkpt lat="59.9554683" lon="17.6928913">
        <ele>33.3029</ele>
        <time>2012-03-21T15:26:36Z</time>
      </trkpt>
      <trkpt lat="59.9554749" lon="17.692854">
        <ele>31.8607</ele>
        <time>2012-03-21T15:26:37Z</time>
      </trkpt>
      <trkpt lat="59.9554848" lon="17.6927837">
        <ele>29.9381</ele>
        <time>2012-03-21T15:26:39Z</time>
      </trkpt>
      <trkpt lat="59.9555411" lon="17.6925993">
        <ele>26.5736</ele>
        <time>2012-03-21T15:26:46Z</time>
      </trkpt>
      <trkpt lat="59.9555546" lon="17.6925576">
        <ele>25.6123</ele>
        <time>2012-03-21T15:26:48Z</time>
      </trkpt>
      <trkpt lat="59.9556014" lon="17.6924237">
        <ele>23.209</ele>
        <time>2012-03-21T15:26:54Z</time>
      </trkpt>
      <trkpt lat="59.9556208" lon="17.6923786">
        <ele>23.6896</ele>
        <time>2012-03-21T15:26:56Z</time>
      </trkpt>
      <trkpt lat="59.9556897" lon="17.6922604">
        <ele>26.5736</ele>
        <time>2012-03-21T15:27:02Z</time>
      </trkpt>
      <trkpt lat="59.9557552" lon="17.6921293">
        <ele>28.0155</ele>
        <time>2012-03-21T15:27:07Z</time>
      </trkpt>
      <trkpt lat="59.9557992" lon="17.6920611">
        <ele>29.4575</ele>
        <time>2012-03-21T15:27:10Z</time>
      </trkpt>
      <trkpt lat="59.955854" lon="17.6919572">
        <ele>30.4188</ele>
        <time>2012-03-21T15:27:16Z</time>
      </trkpt>
      <trkpt lat="59.9559538" lon="17.691745">
        <ele>30.8995</ele>
        <time>2012-03-21T15:27:25Z</time>
      </trkpt>
      <trkpt lat="59.9560018" lon="17.6915933">
        <ele>32.8223</ele>
        <time>2012-03-21T15:27:31Z</time>
      </trkpt>
      <trkpt lat="59.9560809" lon="17.6914715">
        <ele>32.3416</ele>
        <time>2012-03-21T15:27:37Z</time>
      </trkpt>
      <trkpt lat="59.9561155" lon="17.6914491">
        <ele>32.3416</ele>
        <time>2012-03-21T15:27:39Z</time>
      </trkpt>
      <trkpt lat="59.9562266" lon="17.6913285">
        <ele>30.8995</ele>
        <time>2012-03-21T15:27:47Z</time>
      </trkpt>
      <trkpt lat="59.9563269" lon="17.6912152">
        <ele>28.9769</ele>
        <time>2012-03-21T15:27:55Z</time>
      </trkpt>
      <trkpt lat="59.9564147" lon="17.6911499">
        <ele>29.4575</ele>
        <time>2012-03-21T15:28:01Z</time>
      </trkpt>
      <trkpt lat="59.9565102" lon="17.6911461">
        <ele>28.0155</ele>
        <time>2012-03-21T15:28:07Z</time>
      </trkpt>
      <trkpt lat="59.9565758" lon="17.691211">
        <ele>24.651</ele>
        <time>2012-03-21T15:28:12Z</time>
      </trkpt>
      <trkpt lat="59.9566117" lon="17.6912602">
        <ele>22.2476</ele>
        <time>2012-03-21T15:28:15Z</time>
      </trkpt>
      <trkpt lat="59.9566787" lon="17.6913322">
        <ele>19.8444</ele>
        <time>2012-03-21T15:28:20Z</time>
      </trkpt>
      <trkpt lat="59.9567203" lon="17.691428">
        <ele>18.8831</ele>
        <time>2012-03-21T15:28:24Z</time>
      </trkpt>
      <trkpt lat="59.9567419" lon="17.6915476">
        <ele>20.325</ele>
        <time>2012-03-21T15:28:28Z</time>
      </trkpt>
      <trkpt lat="59.9567839" lon="17.691676">
        <ele>21.767</ele>
        <time>2012-03-21T15:28:33Z</time>
      </trkpt>
      <trkpt lat="59.9568207" lon="17.6917963">
        <ele>23.209</ele>
        <time>2012-03-21T15:28:38Z</time>
      </trkpt>
      <trkpt lat="59.9568502" lon="17.6918757">
        <ele>24.651</ele>
        <time>2012-03-21T15:28:41Z</time>
      </trkpt>
      <trkpt lat="59.95692" lon="17.692063">
        <ele>24.651</ele>
        <time>2012-03-21T15:28:48Z</time>
      </trkpt>
      <trkpt lat="59.9569662" lon="17.6922202">
        <ele>25.1317</ele>
        <time>2012-03-21T15:28:54Z</time>
      </trkpt>
      <trkpt lat="59.9570341" lon="17.6924009">
        <ele>26.5736</ele>
        <time>2012-03-21T15:29:01Z</time>
      </trkpt>
      <trkpt lat="59.9570784" lon="17.6925739">
        <ele>26.0929</ele>
        <time>2012-03-21T15:29:07Z</time>
      </trkpt>
      <trkpt lat="59.9570914" lon="17.6926271">
        <ele>26.0929</ele>
        <time>2012-03-21T15:29:09Z</time>
      </trkpt>
      <trkpt lat="59.9571277" lon="17.6927479">
        <ele>26.5736</ele>
        <time>2012-03-21T15:29:14Z</time>
      </trkpt>
      <trkpt lat="59.9571579" lon="17.6927731">
        <ele>27.0543</ele>
        <time>2012-03-21T15:29:16Z</time>
      </trkpt>
      <trkpt lat="59.9572059" lon="17.6928602">
        <ele>25.6123</ele>
        <time>2012-03-21T15:29:21Z</time>
      </trkpt>
      <trkpt lat="59.9572905" lon="17.6929953">
        <ele>25.1317</ele>
        <time>2012-03-21T15:29:29Z</time>
      </trkpt>
      <trkpt lat="59.9573657" lon="17.6932243">
        <ele>26.0929</ele>
        <time>2012-03-21T15:29:38Z</time>
      </trkpt>
      <trkpt lat="59.9574387" lon="17.6934357">
        <ele>25.6123</ele>
        <time>2012-03-21T15:29:46Z</time>
      </trkpt>
      <trkpt lat="59.9574837" lon="17.693557">
        <ele>26.0929</ele>
        <time>2012-03-21T15:29:51Z</time>
      </trkpt>
      <trkpt lat="59.9575241" lon="17.6936053">
        <ele>27.0543</ele>
        <time>2012-03-21T15:29:54Z</time>
      </trkpt>
      <trkpt lat="59.9575848" lon="17.693792">
        <ele>27.5349</ele>
        <time>2012-03-21T15:30:00Z</time>
      </trkpt>
      <trkpt lat="59.9576066" lon="17.6938974">
        <ele>27.5349</ele>
        <time>2012-03-21T15:30:03Z</time>
      </trkpt>
      <trkpt lat="59.9576619" lon="17.6941202">
        <ele>27.5349</ele>
        <time>2012-03-21T15:30:11Z</time>
      </trkpt>
      <trkpt lat="59.9576721" lon="17.694143">
        <ele>27.5349</ele>
        <time>2012-03-21T15:30:12Z</time>
      </trkpt>
      <trkpt lat="59.9577399" lon="17.6943453">
        <ele>27.5349</ele>
        <time>2012-03-21T15:30:20Z</time>
      </trkpt>
      <trkpt lat="59.9577939" lon="17.6944996">
        <ele>27.0543</ele>
        <time>2012-03-21T15:30:26Z</time>
      </trkpt>
      <trkpt lat="59.9578306" lon="17.6946045">
        <ele>27.5349</ele>
        <time>2012-03-21T15:30:30Z</time>
      </trkpt>
      <trkpt lat="59.9578646" lon="17.6947091">
        <ele>28.0155</ele>
        <time>2012-03-21T15:30:34Z</time>
      </trkpt>
      <trkpt lat="59.9579307" lon="17.694879">
        <ele>27.0543</ele>
        <time>2012-03-21T15:30:41Z</time>
      </trkpt>
      <trkpt lat="59.9579835" lon="17.6950352">
        <ele>26.5736</ele>
        <time>2012-03-21T15:30:47Z</time>
      </trkpt>
      <trkpt lat="59.9580034" lon="17.6950774">
        <ele>26.5736</ele>
        <time>2012-03-21T15:30:49Z</time>
      </trkpt>
      <trkpt lat="59.958072" lon="17.6951846">
        <ele>26.5736</ele>
        <time>2012-03-21T15:30:55Z</time>
      </trkpt>
      <trkpt lat="59.9580986" lon="17.6952024">
        <ele>25.6123</ele>
        <time>2012-03-21T15:30:57Z</time>
      </trkpt>
      <trkpt lat="59.9581927" lon="17.6953394">
        <ele>25.1317</ele>
        <time>2012-03-21T15:31:05Z</time>
      </trkpt>
      <trkpt lat="59.9582838" lon="17.6955389">
        <ele>25.6123</ele>
        <time>2012-03-21T15:31:14Z</time>
      </trkpt>
      <trkpt lat="59.9583959" lon="17.6958031">
        <ele>26.5736</ele>
        <time>2012-03-21T15:31:25Z</time>
      </trkpt>
      <trkpt lat="59.9584876" lon="17.6960246">
        <ele>27.5349</ele>
        <time>2012-03-21T15:31:34Z</time>
      </trkpt>
      <trkpt lat="59.9585658" lon="17.6962299">
        <ele>28.4962</ele>
        <time>2012-03-21T15:31:42Z</time>
      </trkpt>
      <trkpt lat="59.9586369" lon="17.6964367">
        <ele>28.9769</ele>
        <time>2012-03-21T15:31:50Z</time>
      </trkpt>
      <trkpt lat="59.9586981" lon="17.6965383">
        <ele>29.9381</ele>
        <time>2012-03-21T15:31:56Z</time>
      </trkpt>
      <trkpt lat="59.9587477" lon="17.6966106">
        <ele>29.9381</ele>
        <time>2012-03-21T15:32:00Z</time>
      </trkpt>
      <trkpt lat="59.9588078" lon="17.69676">
        <ele>31.3801</ele>
        <time>2012-03-21T15:32:06Z</time>
      </trkpt>
      <trkpt lat="59.9588891" lon="17.6969345">
        <ele>33.3029</ele>
        <time>2012-03-21T15:32:13Z</time>
      </trkpt>
      <trkpt lat="59.9589275" lon="17.6970679">
        <ele>33.3029</ele>
        <time>2012-03-21T15:32:18Z</time>
      </trkpt>
      <trkpt lat="59.9589909" lon="17.6971439">
        <ele>32.8223</ele>
        <time>2012-03-21T15:32:22Z</time>
      </trkpt>
      <trkpt lat="59.9590464" lon="17.6972837">
        <ele>32.3416</ele>
        <time>2012-03-21T15:32:28Z</time>
      </trkpt>
      <trkpt lat="59.9590828" lon="17.6974112">
        <ele>31.8607</ele>
        <time>2012-03-21T15:32:33Z</time>
      </trkpt>
      <trkpt lat="59.9591361" lon="17.69753">
        <ele>31.8607</ele>
        <time>2012-03-21T15:32:38Z</time>
      </trkpt>
      <trkpt lat="59.9591386" lon="17.6975636">
        <ele>32.3416</ele>
        <time>2012-03-21T15:32:39Z</time>
      </trkpt>
      <trkpt lat="59.9591101" lon="17.6978198">
        <ele>30.8995</ele>
        <time>2012-03-21T15:32:45Z</time>
      </trkpt>
      <trkpt lat="59.9590735" lon="17.6979231">
        <ele>29.9381</ele>
        <time>2012-03-21T15:32:49Z</time>
      </trkpt>
      <trkpt lat="59.9590652" lon="17.6980399">
        <ele>29.9381</ele>
        <time>2012-03-21T15:32:54Z</time>
      </trkpt>
      <trkpt lat="59.9590547" lon="17.6982036">
        <ele>29.9381</ele>
        <time>2012-03-21T15:32:59Z</time>
      </trkpt>
      <trkpt lat="59.9590533" lon="17.6983089">
        <ele>29.9381</ele>
        <time>2012-03-21T15:33:02Z</time>
      </trkpt>
      <trkpt lat="59.9590563" lon="17.69838">
        <ele>29.9381</ele>
        <time>2012-03-21T15:33:04Z</time>
      </trkpt>
      <trkpt lat="59.9590667" lon="17.6985406">
        <ele>30.4188</ele>
        <time>2012-03-21T15:33:10Z</time>
      </trkpt>
      <trkpt lat="59.9590718" lon="17.6986055">
        <ele>30.8995</ele>
        <time>2012-03-21T15:33:12Z</time>
      </trkpt>
      <trkpt lat="59.9590443" lon="17.6987255">
        <ele>29.4575</ele>
        <time>2012-03-21T15:33:16Z</time>
      </trkpt>
      <trkpt lat="59.9590378" lon="17.6987817">
        <ele>28.9769</ele>
        <time>2012-03-21T15:33:18Z</time>
      </trkpt>
      <trkpt lat="59.9590467" lon="17.6988811">
        <ele>28.0155</ele>
        <time>2012-03-21T15:33:21Z</time>
      </trkpt>
      <trkpt lat="59.959034" lon="17.6991019">
        <ele>27.5349</ele>
        <time>2012-03-21T15:33:28Z</time>
      </trkpt>
      <trkpt lat="59.9590434" lon="17.6992014">
        <ele>27.5349</ele>
        <time>2012-03-21T15:33:32Z</time>
      </trkpt>
      <trkpt lat="59.9590627" lon="17.6993086">
        <ele>28.9769</ele>
        <time>2012-03-21T15:33:36Z</time>
      </trkpt>
      <trkpt lat="59.9590657" lon="17.6994519">
        <ele>30.4188</ele>
        <time>2012-03-21T15:33:40Z</time>
      </trkpt>
      <trkpt lat="59.9590729" lon="17.6995145">
        <ele>30.8995</ele>
        <time>2012-03-21T15:33:42Z</time>
      </trkpt>
      <trkpt lat="59.9590935" lon="17.699738">
        <ele>31.3801</ele>
        <time>2012-03-21T15:33:49Z</time>
      </trkpt>
      <trkpt lat="59.9591007" lon="17.6998004">
        <ele>31.3801</ele>
        <time>2012-03-21T15:33:51Z</time>
      </trkpt>
      <trkpt lat="59.9591096" lon="17.6999586">
        <ele>30.4188</ele>
        <time>2012-03-21T15:33:56Z</time>
      </trkpt>
      <trkpt lat="59.9591138" lon="17.7000751">
        <ele>29.9381</ele>
        <time>2012-03-21T15:34:00Z</time>
      </trkpt>
      <trkpt lat="59.9591206" lon="17.7002511">
        <ele>30.4188</ele>
        <time>2012-03-21T15:34:06Z</time>
      </trkpt>
      <trkpt lat="59.9591408" lon="17.7003606">
        <ele>30.8995</ele>
        <time>2012-03-21T15:34:10Z</time>
      </trkpt>
      <trkpt lat="59.9591165" lon="17.7005564">
        <ele>31.3801</ele>
        <time>2012-03-21T15:34:16Z</time>
      </trkpt>
      <trkpt lat="59.9590814" lon="17.7007316">
        <ele>29.4575</ele>
        <time>2012-03-21T15:34:22Z</time>
      </trkpt>
      <trkpt lat="59.9590819" lon="17.7009013">
        <ele>28.0155</ele>
        <time>2012-03-21T15:34:28Z</time>
      </trkpt>
      <trkpt lat="59.9591154" lon="17.7010304">
        <ele>27.5349</ele>
        <time>2012-03-21T15:34:33Z</time>
      </trkpt>
      <trkpt lat="59.9591429" lon="17.7011724">
        <ele>28.0155</ele>
        <time>2012-03-21T15:34:38Z</time>
      </trkpt>
      <trkpt lat="59.9591694" lon="17.7012827">
        <ele>26.5736</ele>
        <time>2012-03-21T15:34:42Z</time>
      </trkpt>
      <trkpt lat="59.9591948" lon="17.7013946">
        <ele>27.0543</ele>
        <time>2012-03-21T15:34:46Z</time>
      </trkpt>
      <trkpt lat="59.9592416" lon="17.7016157">
        <ele>29.9381</ele>
        <time>2012-03-21T15:34:55Z</time>
      </trkpt>
      <trkpt lat="59.959276" lon="17.7017809">
        <ele>30.4188</ele>
        <time>2012-03-21T15:35:01Z</time>
      </trkpt>
      <trkpt lat="59.9592894" lon="17.7018359">
        <ele>30.4188</ele>
        <time>2012-03-21T15:35:03Z</time>
      </trkpt>
      <trkpt lat="59.95933" lon="17.7019624">
        <ele>29.4575</ele>
        <time>2012-03-21T15:35:08Z</time>
      </trkpt>
      <trkpt lat="59.9593346" lon="17.7019862">
        <ele>29.4575</ele>
        <time>2012-03-21T15:35:09Z</time>
      </trkpt>
      <trkpt lat="59.9593934" lon="17.7020984">
        <ele>30.4188</ele>
        <time>2012-03-21T15:35:15Z</time>
      </trkpt>
      <trkpt lat="59.9594488" lon="17.7022561">
        <ele>30.8995</ele>
        <time>2012-03-21T15:35:21Z</time>
      </trkpt>
      <trkpt lat="59.9594781" lon="17.7023617">
        <ele>30.8995</ele>
        <time>2012-03-21T15:35:25Z</time>
      </trkpt>
      <trkpt lat="59.9595056" lon="17.7024885">
        <ele>31.8607</ele>
        <time>2012-03-21T15:35:29Z</time>
      </trkpt>
      <trkpt lat="59.9595199" lon="17.7025378">
        <ele>31.8607</ele>
        <time>2012-03-21T15:35:31Z</time>
      </trkpt>
      <trkpt lat="59.9595376" lon="17.7026119">
        <ele>31.8607</ele>
        <time>2012-03-21T15:35:34Z</time>
      </trkpt>
      <trkpt lat="59.9595666" lon="17.7027347">
        <ele>30.8995</ele>
        <time>2012-03-21T15:35:39Z</time>
      </trkpt>
      <trkpt lat="59.9596156" lon="17.7029045">
        <ele>31.3801</ele>
        <time>2012-03-21T15:35:46Z</time>
      </trkpt>
      <trkpt lat="59.9596701" lon="17.7030444">
        <ele>30.8995</ele>
        <time>2012-03-21T15:35:52Z</time>
      </trkpt>
      <trkpt lat="59.9597215" lon="17.7032267">
        <ele>31.3801</ele>
        <time>2012-03-21T15:35:59Z</time>
      </trkpt>
      <trkpt lat="59.9597277" lon="17.7032504">
        <ele>30.8995</ele>
        <time>2012-03-21T15:36:00Z</time>
      </trkpt>
      <trkpt lat="59.9597677" lon="17.703434">
        <ele>30.8995</ele>
        <time>2012-03-21T15:36:07Z</time>
      </trkpt>
      <trkpt lat="59.9597822" lon="17.7035018">
        <ele>31.8607</ele>
        <time>2012-03-21T15:36:10Z</time>
      </trkpt>
      <trkpt lat="59.9598199" lon="17.7036261">
        <ele>32.3416</ele>
        <time>2012-03-21T15:36:15Z</time>
      </trkpt>
      <trkpt lat="59.9598781" lon="17.7037607">
        <ele>31.8607</ele>
        <time>2012-03-21T15:36:21Z</time>
      </trkpt>
      <trkpt lat="59.9599375" lon="17.7039598">
        <ele>31.8607</ele>
        <time>2012-03-21T15:36:28Z</time>
      </trkpt>
      <trkpt lat="59.9599601" lon="17.7040083">
        <ele>31.8607</ele>
        <time>2012-03-21T15:36:30Z</time>
      </trkpt>
      <trkpt lat="59.9599871" lon="17.7041011">
        <ele>30.8995</ele>
        <time>2012-03-21T15:36:34Z</time>
      </trkpt>
      <trkpt lat="59.9600085" lon="17.7042654">
        <ele>29.9381</ele>
        <time>2012-03-21T15:36:40Z</time>
      </trkpt>
      <trkpt lat="59.9600758" lon="17.7043529">
        <ele>30.8995</ele>
        <time>2012-03-21T15:36:44Z</time>
      </trkpt>
      <trkpt lat="59.9601598" lon="17.7044172">
        <ele>29.9381</ele>
        <time>2012-03-21T15:36:50Z</time>
      </trkpt>
      <trkpt lat="59.9602085" lon="17.7044887">
        <ele>28.4962</ele>
        <time>2012-03-21T15:36:54Z</time>
      </trkpt>
      <trkpt lat="59.9602437" lon="17.704562">
        <ele>28.4962</ele>
        <time>2012-03-21T15:36:59Z</time>
      </trkpt>
      <trkpt lat="59.9602882" lon="17.7046093">
        <ele>27.5349</ele>
        <time>2012-03-21T15:37:03Z</time>
      </trkpt>
      <trkpt lat="59.9603576" lon="17.7046449">
        <ele>27.0543</ele>
        <time>2012-03-21T15:37:07Z</time>
      </trkpt>
      <trkpt lat="59.9604131" lon="17.7047037">
        <ele>27.0543</ele>
        <time>2012-03-21T15:37:11Z</time>
      </trkpt>
      <trkpt lat="59.9604649" lon="17.7048006">
        <ele>27.5349</ele>
        <time>2012-03-21T15:37:15Z</time>
      </trkpt>
      <trkpt lat="59.9605186" lon="17.7049039">
        <ele>28.0155</ele>
        <time>2012-03-21T15:37:20Z</time>
      </trkpt>
      <trkpt lat="59.9605781" lon="17.7049643">
        <ele>27.0543</ele>
        <time>2012-03-21T15:37:24Z</time>
      </trkpt>
      <trkpt lat="59.9605996" lon="17.7049992">
        <ele>26.0929</ele>
        <time>2012-03-21T15:37:26Z</time>
      </trkpt>
      <trkpt lat="59.9606688" lon="17.7050561">
        <ele>23.6896</ele>
        <time>2012-03-21T15:37:31Z</time>
      </trkpt>
      <trkpt lat="59.9607504" lon="17.7051584">
        <ele>19.8444</ele>
        <time>2012-03-21T15:37:38Z</time>
      </trkpt>
      <trkpt lat="59.9607818" lon="17.7051917">
        <ele>19.3638</ele>
        <time>2012-03-21T15:37:40Z</time>
      </trkpt>
      <trkpt lat="59.9608675" lon="17.7053199">
        <ele>18.4023</ele>
        <time>2012-03-21T15:37:47Z</time>
      </trkpt>
      <trkpt lat="59.9609483" lon="17.7053992">
        <ele>16.9604</ele>
        <time>2012-03-21T15:37:52Z</time>
      </trkpt>
      <trkpt lat="59.9610093" lon="17.7055335">
        <ele>16.9604</ele>
        <time>2012-03-21T15:37:58Z</time>
      </trkpt>
      <trkpt lat="59.9610963" lon="17.7056556">
        <ele>19.3638</ele>
        <time>2012-03-21T15:38:04Z</time>
      </trkpt>
      <trkpt lat="59.9611765" lon="17.7057996">
        <ele>21.2864</ele>
        <time>2012-03-21T15:38:11Z</time>
      </trkpt>
      <trkpt lat="59.9612567" lon="17.7059342">
        <ele>21.767</ele>
        <time>2012-03-21T15:38:18Z</time>
      </trkpt>
      <trkpt lat="59.9613025" lon="17.7060105">
        <ele>21.2864</ele>
        <time>2012-03-21T15:38:22Z</time>
      </trkpt>
      <trkpt lat="59.9613605" lon="17.7060882">
        <ele>21.2864</ele>
        <time>2012-03-21T15:38:27Z</time>
      </trkpt>
      <trkpt lat="59.9613942" lon="17.7061338">
        <ele>21.767</ele>
        <time>2012-03-21T15:38:30Z</time>
      </trkpt>
      <trkpt lat="59.961405" lon="17.7061562">
        <ele>21.767</ele>
        <time>2012-03-21T15:38:31Z</time>
      </trkpt>
      <trkpt lat="59.9614879" lon="17.7063136">
        <ele>22.7283</ele>
        <time>2012-03-21T15:38:38Z</time>
      </trkpt>
      <trkpt lat="59.9615717" lon="17.7064155">
        <ele>22.7283</ele>
        <time>2012-03-21T15:38:44Z</time>
      </trkpt>
      <trkpt lat="59.9616573" lon="17.7065366">
        <ele>21.767</ele>
        <time>2012-03-21T15:38:51Z</time>
      </trkpt>
      <trkpt lat="59.9617129" lon="17.706619">
        <ele>21.2864</ele>
        <time>2012-03-21T15:38:56Z</time>
      </trkpt>
      <trkpt lat="59.9618216" lon="17.7067184">
        <ele>21.767</ele>
        <time>2012-03-21T15:39:04Z</time>
      </trkpt>
      <trkpt lat="59.9619162" lon="17.706769">
        <ele>20.325</ele>
        <time>2012-03-21T15:39:10Z</time>
      </trkpt>
      <trkpt lat="59.9619742" lon="17.7068109">
        <ele>19.3638</ele>
        <time>2012-03-21T15:39:14Z</time>
      </trkpt>
      <trkpt lat="59.9620553" lon="17.7068733">
        <ele>19.3638</ele>
        <time>2012-03-21T15:39:20Z</time>
      </trkpt>
      <trkpt lat="59.9621406" lon="17.7069067">
        <ele>19.3638</ele>
        <time>2012-03-21T15:39:25Z</time>
      </trkpt>
      <trkpt lat="59.9622462" lon="17.7069537">
        <ele>20.8057</ele>
        <time>2012-03-21T15:39:31Z</time>
      </trkpt>
      <trkpt lat="59.962309" lon="17.706979">
        <ele>21.2864</ele>
        <time>2012-03-21T15:39:35Z</time>
      </trkpt>
      <trkpt lat="59.9623655" lon="17.7070546">
        <ele>20.8057</ele>
        <time>2012-03-21T15:39:40Z</time>
      </trkpt>
      <trkpt lat="59.9624208" lon="17.7070967">
        <ele>20.325</ele>
        <time>2012-03-21T15:39:44Z</time>
      </trkpt>
      <trkpt lat="59.9625006" lon="17.7071251">
        <ele>20.325</ele>
        <time>2012-03-21T15:39:49Z</time>
      </trkpt>
      <trkpt lat="59.9625499" lon="17.707142">
        <ele>19.8444</ele>
        <time>2012-03-21T15:39:54Z</time>
      </trkpt>
      <trkpt lat="59.962568" lon="17.7071533">
        <ele>19.8444</ele>
        <time>2012-03-21T15:39:56Z</time>
      </trkpt>
      <trkpt lat="59.9626245" lon="17.7071766">
        <ele>19.3638</ele>
        <time>2012-03-21T15:40:01Z</time>
      </trkpt>
      <trkpt lat="59.9626524" lon="17.7071761">
        <ele>18.8831</ele>
        <time>2012-03-21T15:40:03Z</time>
      </trkpt>
      <trkpt lat="59.9627369" lon="17.7072261">
        <ele>18.8831</ele>
        <time>2012-03-21T15:40:09Z</time>
      </trkpt>
      <trkpt lat="59.9628042" lon="17.7072418">
        <ele>18.4023</ele>
        <time>2012-03-21T15:40:14Z</time>
      </trkpt>
      <trkpt lat="59.9629007" lon="17.7072287">
        <ele>18.4023</ele>
        <time>2012-03-21T15:40:20Z</time>
      </trkpt>
      <trkpt lat="59.9629661" lon="17.7072008">
        <ele>18.4023</ele>
        <time>2012-03-21T15:40:24Z</time>
      </trkpt>
      <trkpt lat="59.9630661" lon="17.7071988">
        <ele>19.8444</ele>
        <time>2012-03-21T15:40:30Z</time>
      </trkpt>
      <trkpt lat="59.9631559" lon="17.7072062">
        <ele>19.8444</ele>
        <time>2012-03-21T15:40:36Z</time>
      </trkpt>
      <trkpt lat="59.9631694" lon="17.7072067">
        <ele>19.8444</ele>
        <time>2012-03-21T15:40:37Z</time>
      </trkpt>
      <trkpt lat="59.963243" lon="17.7072558">
        <ele>17.4412</ele>
        <time>2012-03-21T15:40:43Z</time>
      </trkpt>
      <trkpt lat="59.9633026" lon="17.7072769">
        <ele>16.9604</ele>
        <time>2012-03-21T15:40:47Z</time>
      </trkpt>
      <trkpt lat="59.9633655" lon="17.7072917">
        <ele>17.9218</ele>
        <time>2012-03-21T15:40:51Z</time>
      </trkpt>
      <trkpt lat="59.9634463" lon="17.7072719">
        <ele>16.9604</ele>
        <time>2012-03-21T15:40:57Z</time>
      </trkpt>
      <trkpt lat="59.9634755" lon="17.7072703">
        <ele>16.4797</ele>
        <time>2012-03-21T15:40:59Z</time>
      </trkpt>
      <trkpt lat="59.9635004" lon="17.7072823">
        <ele>15.999</ele>
        <time>2012-03-21T15:41:01Z</time>
      </trkpt>
      <trkpt lat="59.9635792" lon="17.7072838">
        <ele>14.557</ele>
        <time>2012-03-21T15:41:07Z</time>
      </trkpt>
      <trkpt lat="59.9636344" lon="17.707276">
        <ele>12.6344</ele>
        <time>2012-03-21T15:41:11Z</time>
      </trkpt>
      <trkpt lat="59.9637402" lon="17.7073288">
        <ele>11.6732</ele>
        <time>2012-03-21T15:41:18Z</time>
      </trkpt>
      <trkpt lat="59.9637682" lon="17.7073396">
        <ele>11.1925</ele>
        <time>2012-03-21T15:41:20Z</time>
      </trkpt>
      <trkpt lat="59.9637998" lon="17.7073434">
        <ele>11.6732</ele>
        <time>2012-03-21T15:41:22Z</time>
      </trkpt>
      <trkpt lat="59.9638708" lon="17.7073559">
        <ele>12.1538</ele>
        <time>2012-03-21T15:41:27Z</time>
      </trkpt>
      <trkpt lat="59.9639478" lon="17.7073629">
        <ele>12.1538</ele>
        <time>2012-03-21T15:41:32Z</time>
      </trkpt>
      <trkpt lat="59.9639809" lon="17.7073738">
        <ele>12.6344</ele>
        <time>2012-03-21T15:41:34Z</time>
      </trkpt>
      <trkpt lat="59.9640847" lon="17.7073693">
        <ele>13.1151</ele>
        <time>2012-03-21T15:41:41Z</time>
      </trkpt>
      <trkpt lat="59.9641805" lon="17.7073945">
        <ele>12.6344</ele>
        <time>2012-03-21T15:41:48Z</time>
      </trkpt>
      <trkpt lat="59.9642406" lon="17.7074349">
        <ele>12.1538</ele>
        <time>2012-03-21T15:41:52Z</time>
      </trkpt>
      <trkpt lat="59.9642891" lon="17.7074378">
        <ele>11.6732</ele>
        <time>2012-03-21T15:41:55Z</time>
      </trkpt>
      <trkpt lat="59.9643889" lon="17.7074992">
        <ele>11.6732</ele>
        <time>2012-03-21T15:42:02Z</time>
      </trkpt>
      <trkpt lat="59.9644064" lon="17.707506">
        <ele>11.6732</ele>
        <time>2012-03-21T15:42:03Z</time>
      </trkpt>
      <trkpt lat="59.9644946" lon="17.7075436">
        <ele>12.1538</ele>
        <time>2012-03-21T15:42:09Z</time>
      </trkpt>
      <trkpt lat="59.9645446" lon="17.7075727">
        <ele>13.1151</ele>
        <time>2012-03-21T15:42:12Z</time>
      </trkpt>
      <trkpt lat="59.9646458" lon="17.7076386">
        <ele>15.5184</ele>
        <time>2012-03-21T15:42:18Z</time>
      </trkpt>
      <trkpt lat="59.9647215" lon="17.7076619">
        <ele>16.9604</ele>
        <time>2012-03-21T15:42:22Z</time>
      </trkpt>
      <trkpt lat="59.9648444" lon="17.7077174">
        <ele>19.3638</ele>
        <time>2012-03-21T15:42:28Z</time>
      </trkpt>
      <trkpt lat="59.9649763" lon="17.7077458">
        <ele>19.8444</ele>
        <time>2012-03-21T15:42:34Z</time>
      </trkpt>
      <trkpt lat="59.9650156" lon="17.707756">
        <ele>20.8057</ele>
        <time>2012-03-21T15:42:36Z</time>
      </trkpt>
      <trkpt lat="59.9650788" lon="17.7078054">
        <ele>21.767</ele>
        <time>2012-03-21T15:42:41Z</time>
      </trkpt>
      <trkpt lat="59.9651559" lon="17.70785">
        <ele>22.7283</ele>
        <time>2012-03-21T15:42:46Z</time>
      </trkpt>
      <trkpt lat="59.9652243" lon="17.7079142">
        <ele>22.7283</ele>
        <time>2012-03-21T15:42:51Z</time>
      </trkpt>
      <trkpt lat="59.9653309" lon="17.7079567">
        <ele>23.6896</ele>
        <time>2012-03-21T15:42:57Z</time>
      </trkpt>
      <trkpt lat="59.9653695" lon="17.7079992">
        <ele>23.209</ele>
        <time>2012-03-21T15:43:00Z</time>
      </trkpt>
      <trkpt lat="59.9654409" lon="17.7081022">
        <ele>22.7283</ele>
        <time>2012-03-21T15:43:06Z</time>
      </trkpt>
      <trkpt lat="59.9654788" lon="17.7081331">
        <ele>22.7283</ele>
        <time>2012-03-21T15:43:09Z</time>
      </trkpt>
      <trkpt lat="59.9655805" lon="17.7081968">
        <ele>24.1703</ele>
        <time>2012-03-21T15:43:16Z</time>
      </trkpt>
      <trkpt lat="59.9656262" lon="17.7082587">
        <ele>24.651</ele>
        <time>2012-03-21T15:43:20Z</time>
      </trkpt>
      <trkpt lat="59.9657175" lon="17.7084219">
        <ele>22.7283</ele>
        <time>2012-03-21T15:43:29Z</time>
      </trkpt>
      <trkpt lat="59.9657544" lon="17.7085296">
        <ele>20.325</ele>
        <time>2012-03-21T15:43:33Z</time>
      </trkpt>
      <trkpt lat="59.9657687" lon="17.708585">
        <ele>19.8444</ele>
        <time>2012-03-21T15:43:35Z</time>
      </trkpt>
      <trkpt lat="59.9658314" lon="17.7087509">
        <ele>20.325</ele>
        <time>2012-03-21T15:43:42Z</time>
      </trkpt>
      <trkpt lat="59.9658815" lon="17.7088771">
        <ele>21.767</ele>
        <time>2012-03-21T15:43:47Z</time>
      </trkpt>
      <trkpt lat="59.9659288" lon="17.7090207">
        <ele>22.7283</ele>
        <time>2012-03-21T15:43:52Z</time>
      </trkpt>
      <trkpt lat="59.9659608" lon="17.7091516">
        <ele>23.6896</ele>
        <time>2012-03-21T15:43:57Z</time>
      </trkpt>
      <trkpt lat="59.9660184" lon="17.709205">
        <ele>23.209</ele>
        <time>2012-03-21T15:44:01Z</time>
      </trkpt>
      <trkpt lat="59.9660288" lon="17.709272">
        <ele>22.2476</ele>
        <time>2012-03-21T15:44:04Z</time>
      </trkpt>
      <trkpt lat="59.9660498" lon="17.7093194">
        <ele>21.2864</ele>
        <time>2012-03-21T15:44:06Z</time>
      </trkpt>
      <trkpt lat="59.9660677" lon="17.7093656">
        <ele>21.2864</ele>
        <time>2012-03-21T15:44:08Z</time>
      </trkpt>
      <trkpt lat="59.9661198" lon="17.7095579">
        <ele>24.651</ele>
        <time>2012-03-21T15:44:15Z</time>
      </trkpt>
      <trkpt lat="59.9661569" lon="17.7096485">
        <ele>25.1317</ele>
        <time>2012-03-21T15:44:18Z</time>
      </trkpt>
      <trkpt lat="59.9662395" lon="17.7098722">
        <ele>27.5349</ele>
        <time>2012-03-21T15:44:27Z</time>
      </trkpt>
      <trkpt lat="59.9662966" lon="17.7100646">
        <ele>28.4962</ele>
        <time>2012-03-21T15:44:35Z</time>
      </trkpt>
      <trkpt lat="59.966299" lon="17.710094">
        <ele>28.0155</ele>
        <time>2012-03-21T15:44:36Z</time>
      </trkpt>
      <trkpt lat="59.9663426" lon="17.710238">
        <ele>27.0543</ele>
        <time>2012-03-21T15:44:42Z</time>
      </trkpt>
      <trkpt lat="59.9663914" lon="17.710392">
        <ele>25.6123</ele>
        <time>2012-03-21T15:44:48Z</time>
      </trkpt>
      <trkpt lat="59.9664312" lon="17.7105443">
        <ele>25.6123</ele>
        <time>2012-03-21T15:44:54Z</time>
      </trkpt>
      <trkpt lat="59.9664774" lon="17.7107225">
        <ele>25.6123</ele>
        <time>2012-03-21T15:45:01Z</time>
      </trkpt>
      <trkpt lat="59.9665297" lon="17.7108843">
        <ele>24.651</ele>
        <time>2012-03-21T15:45:08Z</time>
      </trkpt>
      <trkpt lat="59.9665505" lon="17.7109547">
        <ele>23.209</ele>
        <time>2012-03-21T15:45:11Z</time>
      </trkpt>
      <trkpt lat="59.9666024" lon="17.7111187">
        <ele>20.8057</ele>
        <time>2012-03-21T15:45:18Z</time>
      </trkpt>
      <trkpt lat="59.9666489" lon="17.7112669">
        <ele>20.8057</ele>
        <time>2012-03-21T15:45:24Z</time>
      </trkpt>
      <trkpt lat="59.966701" lon="17.7114553">
        <ele>19.8444</ele>
        <time>2012-03-21T15:45:31Z</time>
      </trkpt>
      <trkpt lat="59.9667293" lon="17.7116268">
        <ele>17.9218</ele>
        <time>2012-03-21T15:45:36Z</time>
      </trkpt>
      <trkpt lat="59.966737" lon="17.7118526">
        <ele>19.3638</ele>
        <time>2012-03-21T15:45:45Z</time>
      </trkpt>
      <trkpt lat="59.9668089" lon="17.7120914">
        <ele>21.2864</ele>
        <time>2012-03-21T15:45:54Z</time>
      </trkpt>
      <trkpt lat="59.9668607" lon="17.7122421">
        <ele>20.8057</ele>
        <time>2012-03-21T15:46:00Z</time>
      </trkpt>
      <trkpt lat="59.966886" lon="17.7123147">
        <ele>20.8057</ele>
        <time>2012-03-21T15:46:03Z</time>
      </trkpt>
      <trkpt lat="59.9669403" lon="17.7124632">
        <ele>22.7283</ele>
        <time>2012-03-21T15:46:08Z</time>
      </trkpt>
      <trkpt lat="59.966983" lon="17.7126461">
        <ele>23.6896</ele>
        <time>2012-03-21T15:46:14Z</time>
      </trkpt>
      <trkpt lat="59.9670098" lon="17.7127679">
        <ele>23.6896</ele>
        <time>2012-03-21T15:46:18Z</time>
      </trkpt>
      <trkpt lat="59.9670497" lon="17.7129284">
        <ele>24.651</ele>
        <time>2012-03-21T15:46:24Z</time>
      </trkpt>
      <trkpt lat="59.9670698" lon="17.7130508">
        <ele>26.0929</ele>
        <time>2012-03-21T15:46:28Z</time>
      </trkpt>
      <trkpt lat="59.9670812" lon="17.7131207">
        <ele>26.5736</ele>
        <time>2012-03-21T15:46:30Z</time>
      </trkpt>
      <trkpt lat="59.967095" lon="17.7131835">
        <ele>27.5349</ele>
        <time>2012-03-21T15:46:32Z</time>
      </trkpt>
      <trkpt lat="59.9671384" lon="17.7133439">
        <ele>30.8995</ele>
        <time>2012-03-21T15:46:38Z</time>
      </trkpt>
      <trkpt lat="59.9671513" lon="17.7134712">
        <ele>33.3029</ele>
        <time>2012-03-21T15:46:42Z</time>
      </trkpt>
      <trkpt lat="59.967154" lon="17.7136014">
        <ele>36.6675</ele>
        <time>2012-03-21T15:46:46Z</time>
      </trkpt>
      <trkpt lat="59.9671784" lon="17.7136785">
        <ele>37.6287</ele>
        <time>2012-03-21T15:46:49Z</time>
      </trkpt>
      <trkpt lat="59.9672147" lon="17.7137802">
        <ele>38.1094</ele>
        <time>2012-03-21T15:46:53Z</time>
      </trkpt>
      <trkpt lat="59.9672343" lon="17.7138796">
        <ele>39.0707</ele>
        <time>2012-03-21T15:46:57Z</time>
      </trkpt>
      <trkpt lat="59.9672824" lon="17.7141135">
        <ele>39.0707</ele>
        <time>2012-03-21T15:47:05Z</time>
      </trkpt>
      <trkpt lat="59.967303" lon="17.7142684">
        <ele>37.6287</ele>
        <time>2012-03-21T15:47:10Z</time>
      </trkpt>
      <trkpt lat="59.9673169" lon="17.7143672">
        <ele>37.1481</ele>
        <time>2012-03-21T15:47:13Z</time>
      </trkpt>
      <trkpt lat="59.9673359" lon="17.7144799">
        <ele>36.6675</ele>
        <time>2012-03-21T15:47:17Z</time>
      </trkpt>
      <trkpt lat="59.9673425" lon="17.7145483">
        <ele>36.6675</ele>
        <time>2012-03-21T15:47:19Z</time>
      </trkpt>
      <trkpt lat="59.9673495" lon="17.7146463">
        <ele>36.1868</ele>
        <time>2012-03-21T15:47:22Z</time>
      </trkpt>
      <trkpt lat="59.9673771" lon="17.7147867">
        <ele>34.2642</ele>
        <time>2012-03-21T15:47:28Z</time>
      </trkpt>
      <trkpt lat="59.9674035" lon="17.714925">
        <ele>33.7834</ele>
        <time>2012-03-21T15:47:33Z</time>
      </trkpt>
      <trkpt lat="59.9674201" lon="17.7150307">
        <ele>32.3416</ele>
        <time>2012-03-21T15:47:37Z</time>
      </trkpt>
      <trkpt lat="59.9674465" lon="17.7152332">
        <ele>31.8607</ele>
        <time>2012-03-21T15:47:44Z</time>
      </trkpt>
      <trkpt lat="59.9674384" lon="17.7153321">
        <ele>34.2642</ele>
        <time>2012-03-21T15:47:48Z</time>
      </trkpt>
      <trkpt lat="59.9674423" lon="17.7153641">
        <ele>34.2642</ele>
        <time>2012-03-21T15:47:49Z</time>
      </trkpt>
      <trkpt lat="59.9674704" lon="17.715566">
        <ele>33.3029</ele>
        <time>2012-03-21T15:47:55Z</time>
      </trkpt>
      <trkpt lat="59.9674744" lon="17.7156232">
        <ele>33.7834</ele>
        <time>2012-03-21T15:47:57Z</time>
      </trkpt>
      <trkpt lat="59.9675197" lon="17.7158046">
        <ele>35.2255</ele>
        <time>2012-03-21T15:48:05Z</time>
      </trkpt>
      <trkpt lat="59.9675559" lon="17.715904">
        <ele>35.2255</ele>
        <time>2012-03-21T15:48:09Z</time>
      </trkpt>
      <trkpt lat="59.9676179" lon="17.7160965">
        <ele>33.7834</ele>
        <time>2012-03-21T15:48:17Z</time>
      </trkpt>
      <trkpt lat="59.967687" lon="17.7162545">
        <ele>35.7061</ele>
        <time>2012-03-21T15:48:24Z</time>
      </trkpt>
      <trkpt lat="59.9677754" lon="17.7164366">
        <ele>37.1481</ele>
        <time>2012-03-21T15:48:32Z</time>
      </trkpt>
      <trkpt lat="59.9678818" lon="17.716634">
        <ele>38.5901</ele>
        <time>2012-03-21T15:48:41Z</time>
      </trkpt>
      <trkpt lat="59.9679974" lon="17.7168036">
        <ele>40.0321</ele>
        <time>2012-03-21T15:48:50Z</time>
      </trkpt>
      <trkpt lat="59.9680932" lon="17.7169509">
        <ele>40.9934</ele>
        <time>2012-03-21T15:48:58Z</time>
      </trkpt>
      <trkpt lat="59.9681604" lon="17.7170389">
        <ele>40.5128</ele>
        <time>2012-03-21T15:49:04Z</time>
      </trkpt>
      <trkpt lat="59.968234" lon="17.7171198">
        <ele>37.6287</ele>
        <time>2012-03-21T15:49:10Z</time>
      </trkpt>
      <trkpt lat="59.9683138" lon="17.7171931">
        <ele>34.7449</ele>
        <time>2012-03-21T15:49:17Z</time>
      </trkpt>
      <trkpt lat="59.9684433" lon="17.7172881">
        <ele>32.8223</ele>
        <time>2012-03-21T15:49:27Z</time>
      </trkpt>
      <trkpt lat="59.9685117" lon="17.7173265">
        <ele>31.3801</ele>
        <time>2012-03-21T15:49:32Z</time>
      </trkpt>
      <trkpt lat="59.9686115" lon="17.7174005">
        <ele>28.4962</ele>
        <time>2012-03-21T15:49:40Z</time>
      </trkpt>
      <trkpt lat="59.9687494" lon="17.7174596">
        <ele>27.5349</ele>
        <time>2012-03-21T15:49:50Z</time>
      </trkpt>
      <trkpt lat="59.9687761" lon="17.717475">
        <ele>27.0543</ele>
        <time>2012-03-21T15:49:52Z</time>
      </trkpt>
      <trkpt lat="59.9688639" lon="17.7174423">
        <ele>26.0929</ele>
        <time>2012-03-21T15:49:58Z</time>
      </trkpt>
      <trkpt lat="59.96894" lon="17.7173538">
        <ele>25.1317</ele>
        <time>2012-03-21T15:50:04Z</time>
      </trkpt>
      <trkpt lat="59.9689535" lon="17.7173492">
        <ele>25.1317</ele>
        <time>2012-03-21T15:50:05Z</time>
      </trkpt>
      <trkpt lat="59.9690612" lon="17.7173294">
        <ele>23.209</ele>
        <time>2012-03-21T15:50:12Z</time>
      </trkpt>
      <trkpt lat="59.9691103" lon="17.7173254">
        <ele>22.7283</ele>
        <time>2012-03-21T15:50:15Z</time>
      </trkpt>
      <trkpt lat="59.9692172" lon="17.7173626">
        <ele>24.1703</ele>
        <time>2012-03-21T15:50:22Z</time>
      </trkpt>
      <trkpt lat="59.9693227" lon="17.7173654">
        <ele>26.0929</ele>
        <time>2012-03-21T15:50:27Z</time>
      </trkpt>
      <trkpt lat="59.969412" lon="17.7173936">
        <ele>28.0155</ele>
        <time>2012-03-21T15:50:32Z</time>
      </trkpt>
      <trkpt lat="59.969556" lon="17.7174196">
        <ele>31.3801</ele>
        <time>2012-03-21T15:50:39Z</time>
      </trkpt>
      <trkpt lat="59.9696257" lon="17.7174648">
        <ele>30.8995</ele>
        <time>2012-03-21T15:50:44Z</time>
      </trkpt>
      <trkpt lat="59.9697015" lon="17.7175202">
        <ele>31.3801</ele>
        <time>2012-03-21T15:50:50Z</time>
      </trkpt>
      <trkpt lat="59.9697391" lon="17.7175435">
        <ele>32.3416</ele>
        <time>2012-03-21T15:50:52Z</time>
      </trkpt>
      <trkpt lat="59.9697583" lon="17.717574">
        <ele>31.3801</ele>
        <time>2012-03-21T15:50:54Z</time>
      </trkpt>
      <trkpt lat="59.9698221" lon="17.717629">
        <ele>30.4188</ele>
        <time>2012-03-21T15:50:59Z</time>
      </trkpt>
      <trkpt lat="59.9698951" lon="17.7177277">
        <ele>25.1317</ele>
        <time>2012-03-21T15:51:06Z</time>
      </trkpt>
      <trkpt lat="59.9699425" lon="17.7177862">
        <ele>19.8444</ele>
        <time>2012-03-21T15:51:11Z</time>
      </trkpt>
      <trkpt lat="59.9699798" lon="17.7178438">
        <ele>16.9604</ele>
        <time>2012-03-21T15:51:15Z</time>
      </trkpt>
      <trkpt lat="59.9700456" lon="17.7179297">
        <ele>14.0764</ele>
        <time>2012-03-21T15:51:21Z</time>
      </trkpt>
      <trkpt lat="59.9701185" lon="17.7180168">
        <ele>10.2312</ele>
        <time>2012-03-21T15:51:27Z</time>
      </trkpt>
      <trkpt lat="59.9701407" lon="17.7180392">
        <ele>9.2699</ele>
        <time>2012-03-21T15:51:29Z</time>
      </trkpt>
      <trkpt lat="59.9702088" lon="17.7181439">
        <ele>4.46326</ele>
        <time>2012-03-21T15:51:36Z</time>
      </trkpt>
      <trkpt lat="59.9702292" lon="17.7181683">
        <ele>3.50195</ele>
        <time>2012-03-21T15:51:38Z</time>
      </trkpt>
      <trkpt lat="59.9702686" lon="17.7182418">
        <ele>0</ele>
        <time>2012-03-21T15:51:42Z</time>
      </trkpt>
      <trkpt lat="59.9703467" lon="17.7183132">
        <ele>0</ele>
        <time>2012-03-21T15:51:48Z</time>
      </trkpt>
      <trkpt lat="59.9703687" lon="17.7183341">
        <ele>0</ele>
        <time>2012-03-21T15:51:50Z</time>
      </trkpt>
      <trkpt lat="59.9704837" lon="17.7184345">
        <ele>0.137451</ele>
        <time>2012-03-21T15:51:58Z</time>
      </trkpt>
      <trkpt lat="59.970522" lon="17.7184874">
        <ele>0.618042</ele>
        <time>2012-03-21T15:52:01Z</time>
      </trkpt>
      <trkpt lat="59.9705967" lon="17.7185311">
        <ele>6.38586</ele>
        <time>2012-03-21T15:52:06Z</time>
      </trkpt>
      <trkpt lat="59.9706877" lon="17.7185666">
        <ele>9.75061</ele>
        <time>2012-03-21T15:52:10Z</time>
      </trkpt>
      <trkpt lat="59.9707312" lon="17.718595">
        <ele>10.2312</ele>
        <time>2012-03-21T15:52:13Z</time>
      </trkpt>
      <trkpt lat="59.9708249" lon="17.7186612">
        <ele>12.6344</ele>
        <time>2012-03-21T15:52:19Z</time>
      </trkpt>
      <trkpt lat="59.9708546" lon="17.7186894">
        <ele>13.1151</ele>
        <time>2012-03-21T15:52:21Z</time>
      </trkpt>
      <trkpt lat="59.9709276" lon="17.7187287">
        <ele>12.6344</ele>
        <time>2012-03-21T15:52:25Z</time>
      </trkpt>
      <trkpt lat="59.970939" lon="17.7187427">
        <ele>12.6344</ele>
        <time>2012-03-21T15:52:26Z</time>
      </trkpt>
      <trkpt lat="59.9710478" lon="17.7188918">
        <ele>12.6344</ele>
        <time>2012-03-21T15:52:35Z</time>
      </trkpt>
      <trkpt lat="59.9711538" lon="17.7189903">
        <ele>12.6344</ele>
        <time>2012-03-21T15:52:42Z</time>
      </trkpt>
      <trkpt lat="59.9712322" lon="17.7190509">
        <ele>13.5958</ele>
        <time>2012-03-21T15:52:47Z</time>
      </trkpt>
      <trkpt lat="59.9712529" lon="17.7190776">
        <ele>13.1151</ele>
        <time>2012-03-21T15:52:49Z</time>
      </trkpt>
      <trkpt lat="59.9713431" lon="17.7190777">
        <ele>13.5958</ele>
        <time>2012-03-21T15:52:54Z</time>
      </trkpt>
      <trkpt lat="59.97137" lon="17.7190835">
        <ele>13.5958</ele>
        <time>2012-03-21T15:52:56Z</time>
      </trkpt>
      <trkpt lat="59.9714401" lon="17.7191509">
        <ele>15.5184</ele>
        <time>2012-03-21T15:53:01Z</time>
      </trkpt>
      <trkpt lat="59.9715019" lon="17.7192389">
        <ele>14.0764</ele>
        <time>2012-03-21T15:53:06Z</time>
      </trkpt>
      <trkpt lat="59.9715409" lon="17.7193059">
        <ele>12.1538</ele>
        <time>2012-03-21T15:53:10Z</time>
      </trkpt>
      <trkpt lat="59.9716297" lon="17.7194011">
        <ele>11.1925</ele>
        <time>2012-03-21T15:53:17Z</time>
      </trkpt>
      <trkpt lat="59.9717098" lon="17.7194741">
        <ele>9.2699</ele>
        <time>2012-03-21T15:53:23Z</time>
      </trkpt>
      <trkpt lat="59.9717662" lon="17.7195457">
        <ele>8.78918</ele>
        <time>2012-03-21T15:53:28Z</time>
      </trkpt>
      <trkpt lat="59.9718304" lon="17.7196226">
        <ele>6.86646</ele>
        <time>2012-03-21T15:53:34Z</time>
      </trkpt>
      <trkpt lat="59.9718677" lon="17.7196604">
        <ele>7.34717</ele>
        <time>2012-03-21T15:53:37Z</time>
      </trkpt>
      <trkpt lat="59.9719461" lon="17.719734">
        <ele>7.82788</ele>
        <time>2012-03-21T15:53:43Z</time>
      </trkpt>
      <trkpt lat="59.9719797" lon="17.7197998">
        <ele>5.90527</ele>
        <time>2012-03-21T15:53:47Z</time>
      </trkpt>
      <trkpt lat="59.9720766" lon="17.7198999">
        <ele>5.42456</ele>
        <time>2012-03-21T15:53:54Z</time>
      </trkpt>
      <trkpt lat="59.972103" lon="17.7199279">
        <ele>6.38586</ele>
        <time>2012-03-21T15:53:56Z</time>
      </trkpt>
      <trkpt lat="59.9721475" lon="17.7199529">
        <ele>7.82788</ele>
        <time>2012-03-21T15:53:59Z</time>
      </trkpt>
      <trkpt lat="59.9722433" lon="17.7200456">
        <ele>9.75061</ele>
        <time>2012-03-21T15:54:06Z</time>
      </trkpt>
      <trkpt lat="59.9722756" lon="17.7200655">
        <ele>9.75061</ele>
        <time>2012-03-21T15:54:08Z</time>
      </trkpt>
      <trkpt lat="59.9723211" lon="17.7200997">
        <ele>10.7118</ele>
        <time>2012-03-21T15:54:11Z</time>
      </trkpt>
      <trkpt lat="59.9724002" lon="17.7201531">
        <ele>12.6344</ele>
        <time>2012-03-21T15:54:16Z</time>
      </trkpt>
      <trkpt lat="59.9724941" lon="17.7202175">
        <ele>14.557</ele>
        <time>2012-03-21T15:54:22Z</time>
      </trkpt>
      <trkpt lat="59.9725509" lon="17.7202428">
        <ele>15.999</ele>
        <time>2012-03-21T15:54:25Z</time>
      </trkpt>
      <trkpt lat="59.9726195" lon="17.7203027">
        <ele>17.4412</ele>
        <time>2012-03-21T15:54:30Z</time>
      </trkpt>
      <trkpt lat="59.9726821" lon="17.7203463">
        <ele>18.4023</ele>
        <time>2012-03-21T15:54:34Z</time>
      </trkpt>
      <trkpt lat="59.972827" lon="17.7204806">
        <ele>21.2864</ele>
        <time>2012-03-21T15:54:44Z</time>
      </trkpt>
      <trkpt lat="59.9728903" lon="17.7205745">
        <ele>20.8057</ele>
        <time>2012-03-21T15:54:49Z</time>
      </trkpt>
      <trkpt lat="59.9729007" lon="17.7205936">
        <ele>19.8444</ele>
        <time>2012-03-21T15:54:50Z</time>
      </trkpt>
      <trkpt lat="59.9729772" lon="17.7207242">
        <ele>18.4023</ele>
        <time>2012-03-21T15:54:57Z</time>
      </trkpt>
      <trkpt lat="59.9730184" lon="17.720767">
        <ele>19.3638</ele>
        <time>2012-03-21T15:55:00Z</time>
      </trkpt>
      <trkpt lat="59.9731057" lon="17.7208401">
        <ele>22.2476</ele>
        <time>2012-03-21T15:55:05Z</time>
      </trkpt>
      <trkpt lat="59.9732162" lon="17.7210117">
        <ele>23.209</ele>
        <time>2012-03-21T15:55:14Z</time>
      </trkpt>
      <trkpt lat="59.9732954" lon="17.7211727">
        <ele>23.6896</ele>
        <time>2012-03-21T15:55:21Z</time>
      </trkpt>
      <trkpt lat="59.9733509" lon="17.7213064">
        <ele>22.2476</ele>
        <time>2012-03-21T15:55:27Z</time>
      </trkpt>
      <trkpt lat="59.9734234" lon="17.7214476">
        <ele>21.767</ele>
        <time>2012-03-21T15:55:34Z</time>
      </trkpt>
      <trkpt lat="59.9734945" lon="17.7215767">
        <ele>22.2476</ele>
        <time>2012-03-21T15:55:40Z</time>
      </trkpt>
      <trkpt lat="59.9735546" lon="17.7217112">
        <ele>21.767</ele>
        <time>2012-03-21T15:55:46Z</time>
      </trkpt>
      <trkpt lat="59.9736503" lon="17.7219396">
        <ele>22.2476</ele>
        <time>2012-03-21T15:55:56Z</time>
      </trkpt>
      <trkpt lat="59.9737464" lon="17.7221471">
        <ele>25.1317</ele>
        <time>2012-03-21T15:56:05Z</time>
      </trkpt>
      <trkpt lat="59.9738332" lon="17.7223611">
        <ele>26.0929</ele>
        <time>2012-03-21T15:56:14Z</time>
      </trkpt>
      <trkpt lat="59.973902" lon="17.7225745">
        <ele>27.0543</ele>
        <time>2012-03-21T15:56:22Z</time>
      </trkpt>
      <trkpt lat="59.9739586" lon="17.7228075">
        <ele>26.5736</ele>
        <time>2012-03-21T15:56:31Z</time>
      </trkpt>
      <trkpt lat="59.9739964" lon="17.7230018">
        <ele>26.5736</ele>
        <time>2012-03-21T15:56:38Z</time>
      </trkpt>
      <trkpt lat="59.9740392" lon="17.7232105">
        <ele>27.5349</ele>
        <time>2012-03-21T15:56:46Z</time>
      </trkpt>
      <trkpt lat="59.9740838" lon="17.7234337">
        <ele>28.9769</ele>
        <time>2012-03-21T15:56:54Z</time>
      </trkpt>
      <trkpt lat="59.9741391" lon="17.723728">
        <ele>30.8995</ele>
        <time>2012-03-21T15:57:04Z</time>
      </trkpt>
      <trkpt lat="59.9741787" lon="17.7239849">
        <ele>30.8995</ele>
        <time>2012-03-21T15:57:13Z</time>
      </trkpt>
      <trkpt lat="59.9742095" lon="17.7242681">
        <ele>30.4188</ele>
        <time>2012-03-21T15:57:23Z</time>
      </trkpt>
      <trkpt lat="59.9742139" lon="17.72433">
        <ele>29.9381</ele>
        <time>2012-03-21T15:57:25Z</time>
      </trkpt>
      <trkpt lat="59.974234" lon="17.7245419">
        <ele>28.4962</ele>
        <time>2012-03-21T15:57:32Z</time>
      </trkpt>
      <trkpt lat="59.9742459" lon="17.7245966">
        <ele>28.0155</ele>
        <time>2012-03-21T15:57:34Z</time>
      </trkpt>
      <trkpt lat="59.9742665" lon="17.7247353">
        <ele>27.5349</ele>
        <time>2012-03-21T15:57:39Z</time>
      </trkpt>
      <trkpt lat="59.9743076" lon="17.725032">
        <ele>27.5349</ele>
        <time>2012-03-21T15:57:49Z</time>
      </trkpt>
      <trkpt lat="59.9743119" lon="17.7250617">
        <ele>28.0155</ele>
        <time>2012-03-21T15:57:50Z</time>
      </trkpt>
      <trkpt lat="59.9743429" lon="17.7252019">
        <ele>27.5349</ele>
        <time>2012-03-21T15:57:55Z</time>
      </trkpt>
      <trkpt lat="59.9743499" lon="17.7252561">
        <ele>27.5349</ele>
        <time>2012-03-21T15:57:57Z</time>
      </trkpt>
      <trkpt lat="59.9743683" lon="17.7253639">
        <ele>27.5349</ele>
        <time>2012-03-21T15:58:01Z</time>
      </trkpt>
      <trkpt lat="59.974404" lon="17.7255048">
        <ele>28.0155</ele>
        <time>2012-03-21T15:58:07Z</time>
      </trkpt>
      <trkpt lat="59.9744095" lon="17.7255828">
        <ele>28.0155</ele>
        <time>2012-03-21T15:58:10Z</time>
      </trkpt>
      <trkpt lat="59.9744242" lon="17.7257388">
        <ele>27.0543</ele>
        <time>2012-03-21T15:58:16Z</time>
      </trkpt>
      <trkpt lat="59.9744262" lon="17.7258073">
        <ele>27.5349</ele>
        <time>2012-03-21T15:58:18Z</time>
      </trkpt>
      <trkpt lat="59.9744232" lon="17.7259073">
        <ele>27.5349</ele>
        <time>2012-03-21T15:58:21Z</time>
      </trkpt>
      <trkpt lat="59.9744284" lon="17.726072">
        <ele>27.0543</ele>
        <time>2012-03-21T15:58:27Z</time>
      </trkpt>
      <trkpt lat="59.9744411" lon="17.7262186">
        <ele>27.0543</ele>
        <time>2012-03-21T15:58:33Z</time>
      </trkpt>
      <trkpt lat="59.9744501" lon="17.7263293">
        <ele>27.5349</ele>
        <time>2012-03-21T15:58:37Z</time>
      </trkpt>
      <trkpt lat="59.9744558" lon="17.7265232">
        <ele>27.0543</ele>
        <time>2012-03-21T15:58:44Z</time>
      </trkpt>
      <trkpt lat="59.9744614" lon="17.7267232">
        <ele>27.5349</ele>
        <time>2012-03-21T15:58:49Z</time>
      </trkpt>
      <trkpt lat="59.9744532" lon="17.7269105">
        <ele>26.5736</ele>
        <time>2012-03-21T15:58:55Z</time>
      </trkpt>
      <trkpt lat="59.9744616" lon="17.727097">
        <ele>26.5736</ele>
        <time>2012-03-21T15:59:00Z</time>
      </trkpt>
      <trkpt lat="59.9744789" lon="17.7273162">
        <ele>27.5349</ele>
        <time>2012-03-21T15:59:07Z</time>
      </trkpt>
      <trkpt lat="59.9744848" lon="17.7274485">
        <ele>28.0155</ele>
        <time>2012-03-21T15:59:12Z</time>
      </trkpt>
      <trkpt lat="59.9744823" lon="17.7276732">
        <ele>27.0543</ele>
        <time>2012-03-21T15:59:19Z</time>
      </trkpt>
      <trkpt lat="59.974488" lon="17.7278213">
        <ele>27.0543</ele>
        <time>2012-03-21T15:59:24Z</time>
      </trkpt>
      <trkpt lat="59.9744829" lon="17.7279897">
        <ele>27.0543</ele>
        <time>2012-03-21T15:59:29Z</time>
      </trkpt>
      <trkpt lat="59.9744734" lon="17.7281368">
        <ele>26.0929</ele>
        <time>2012-03-21T15:59:33Z</time>
      </trkpt>
      <trkpt lat="59.974477" lon="17.7282218">
        <ele>26.5736</ele>
        <time>2012-03-21T15:59:37Z</time>
      </trkpt>
      <trkpt lat="59.9744799" lon="17.7282905">
        <ele>26.0929</ele>
        <time>2012-03-21T15:59:39Z</time>
      </trkpt>
      <trkpt lat="59.9744858" lon="17.7284716">
        <ele>26.0929</ele>
        <time>2012-03-21T15:59:45Z</time>
      </trkpt>
      <trkpt lat="59.9744922" lon="17.7286481">
        <ele>26.5736</ele>
        <time>2012-03-21T15:59:51Z</time>
      </trkpt>
      <trkpt lat="59.9744936" lon="17.7286666">
        <ele>26.5736</ele>
        <time>2012-03-21T15:59:52Z</time>
      </trkpt>
      <trkpt lat="59.9745029" lon="17.7288158">
        <ele>26.0929</ele>
        <time>2012-03-21T15:59:57Z</time>
      </trkpt>
      <trkpt lat="59.9745136" lon="17.7289812">
        <ele>26.5736</ele>
        <time>2012-03-21T16:00:02Z</time>
      </trkpt>
      <trkpt lat="59.9745195" lon="17.7292275">
        <ele>27.0543</ele>
        <time>2012-03-21T16:00:10Z</time>
      </trkpt>
      <trkpt lat="59.9745221" lon="17.7293719">
        <ele>28.0155</ele>
        <time>2012-03-21T16:00:15Z</time>
      </trkpt>
      <trkpt lat="59.9745128" lon="17.7296433">
        <ele>27.0543</ele>
        <time>2012-03-21T16:00:23Z</time>
      </trkpt>
      <trkpt lat="59.9744755" lon="17.7300098">
        <ele>26.5736</ele>
        <time>2012-03-21T16:00:34Z</time>
      </trkpt>
      <trkpt lat="59.9744476" lon="17.730271">
        <ele>27.0543</ele>
        <time>2012-03-21T16:00:42Z</time>
      </trkpt>
      <trkpt lat="59.9744284" lon="17.7305081">
        <ele>26.0929</ele>
        <time>2012-03-21T16:00:49Z</time>
      </trkpt>
      <trkpt lat="59.9743991" lon="17.7308444">
        <ele>24.1703</ele>
        <time>2012-03-21T16:01:00Z</time>
      </trkpt>
      <trkpt lat="59.974388" lon="17.7309345">
        <ele>24.651</ele>
        <time>2012-03-21T16:01:03Z</time>
      </trkpt>
      <trkpt lat="59.9743771" lon="17.7310718">
        <ele>24.651</ele>
        <time>2012-03-21T16:01:08Z</time>
      </trkpt>
      <trkpt lat="59.974373" lon="17.7311293">
        <ele>24.651</ele>
        <time>2012-03-21T16:01:10Z</time>
      </trkpt>
      <trkpt lat="59.9743719" lon="17.7312384">
        <ele>25.1317</ele>
        <time>2012-03-21T16:01:14Z</time>
      </trkpt>
      <trkpt lat="59.9743701" lon="17.731365">
        <ele>25.6123</ele>
        <time>2012-03-21T16:01:19Z</time>
      </trkpt>
      <trkpt lat="59.9743816" lon="17.7315247">
        <ele>27.0543</ele>
        <time>2012-03-21T16:01:24Z</time>
      </trkpt>
      <trkpt lat="59.974376" lon="17.7316156">
        <ele>27.0543</ele>
        <time>2012-03-21T16:01:27Z</time>
      </trkpt>
      <trkpt lat="59.9743661" lon="17.7318293">
        <ele>27.0543</ele>
        <time>2012-03-21T16:01:34Z</time>
      </trkpt>
      <trkpt lat="59.9743818" lon="17.7320139">
        <ele>28.9769</ele>
        <time>2012-03-21T16:01:40Z</time>
      </trkpt>
      <trkpt lat="59.9743946" lon="17.7322144">
        <ele>29.9381</ele>
        <time>2012-03-21T16:01:47Z</time>
      </trkpt>
      <trkpt lat="59.974405" lon="17.732398">
        <ele>30.8995</ele>
        <time>2012-03-21T16:01:53Z</time>
      </trkpt>
      <trkpt lat="59.9744138" lon="17.7327342">
        <ele>30.8995</ele>
        <time>2012-03-21T16:02:04Z</time>
      </trkpt>
      <trkpt lat="59.9744149" lon="17.7329657">
        <ele>30.8995</ele>
        <time>2012-03-21T16:02:11Z</time>
      </trkpt>
      <trkpt lat="59.9744168" lon="17.7332136">
        <ele>32.3416</ele>
        <time>2012-03-21T16:02:19Z</time>
      </trkpt>
      <trkpt lat="59.9744164" lon="17.7333718">
        <ele>32.8223</ele>
        <time>2012-03-21T16:02:24Z</time>
      </trkpt>
      <trkpt lat="59.9743995" lon="17.7335644">
        <ele>31.8607</ele>
        <time>2012-03-21T16:02:30Z</time>
      </trkpt>
      <trkpt lat="59.9743888" lon="17.733655">
        <ele>31.3801</ele>
        <time>2012-03-21T16:02:33Z</time>
      </trkpt>
      <trkpt lat="59.9743803" lon="17.7337799">
        <ele>30.4188</ele>
        <time>2012-03-21T16:02:37Z</time>
      </trkpt>
      <trkpt lat="59.9743589" lon="17.7339338">
        <ele>29.4575</ele>
        <time>2012-03-21T16:02:42Z</time>
      </trkpt>
      <trkpt lat="59.9743486" lon="17.7341178">
        <ele>28.9769</ele>
        <time>2012-03-21T16:02:48Z</time>
      </trkpt>
      <trkpt lat="59.974344" lon="17.7342155">
        <ele>29.4575</ele>
        <time>2012-03-21T16:02:51Z</time>
      </trkpt>
      <trkpt lat="59.9743512" lon="17.7345073">
        <ele>30.8995</ele>
        <time>2012-03-21T16:03:00Z</time>
      </trkpt>
      <trkpt lat="59.9743546" lon="17.7346923">
        <ele>31.3801</ele>
        <time>2012-03-21T16:03:06Z</time>
      </trkpt>
      <trkpt lat="59.9743629" lon="17.7348987">
        <ele>31.3801</ele>
        <time>2012-03-21T16:03:13Z</time>
      </trkpt>
      <trkpt lat="59.9743758" lon="17.735113">
        <ele>30.8995</ele>
        <time>2012-03-21T16:03:20Z</time>
      </trkpt>
      <trkpt lat="59.9743942" lon="17.7353781">
        <ele>29.9381</ele>
        <time>2012-03-21T16:03:29Z</time>
      </trkpt>
      <trkpt lat="59.9744225" lon="17.7355613">
        <ele>29.4575</ele>
        <time>2012-03-21T16:03:36Z</time>
      </trkpt>
      <trkpt lat="59.9744496" lon="17.7357824">
        <ele>28.0155</ele>
        <time>2012-03-21T16:03:43Z</time>
      </trkpt>
      <trkpt lat="59.9744761" lon="17.7359795">
        <ele>26.0929</ele>
        <time>2012-03-21T16:03:50Z</time>
      </trkpt>
      <trkpt lat="59.9745165" lon="17.7362117">
        <ele>24.651</ele>
        <time>2012-03-21T16:03:58Z</time>
      </trkpt>
      <trkpt lat="59.9745878" lon="17.7364799">
        <ele>24.651</ele>
        <time>2012-03-21T16:04:08Z</time>
      </trkpt>
      <trkpt lat="59.9746401" lon="17.736686">
        <ele>22.7283</ele>
        <time>2012-03-21T16:04:16Z</time>
      </trkpt>
      <trkpt lat="59.9747094" lon="17.73693">
        <ele>19.8444</ele>
        <time>2012-03-21T16:04:25Z</time>
      </trkpt>
      <trkpt lat="59.9747683" lon="17.7370849">
        <ele>19.3638</ele>
        <time>2012-03-21T16:04:31Z</time>
      </trkpt>
      <trkpt lat="59.9748294" lon="17.7372646">
        <ele>17.9218</ele>
        <time>2012-03-21T16:04:37Z</time>
      </trkpt>
      <trkpt lat="59.974891" lon="17.7374152">
        <ele>17.4412</ele>
        <time>2012-03-21T16:04:44Z</time>
      </trkpt>
      <trkpt lat="59.9749506" lon="17.7375479">
        <ele>15.0377</ele>
        <time>2012-03-21T16:04:50Z</time>
      </trkpt>
      <trkpt lat="59.9749824" lon="17.7375895">
        <ele>13.5958</ele>
        <time>2012-03-21T16:04:53Z</time>
      </trkpt>
      <trkpt lat="59.9750158" lon="17.7376714">
        <ele>14.0764</ele>
        <time>2012-03-21T16:04:57Z</time>
      </trkpt>
      <trkpt lat="59.975039" lon="17.7377184">
        <ele>14.557</ele>
        <time>2012-03-21T16:04:59Z</time>
      </trkpt>
      <trkpt lat="59.9750893" lon="17.7378024">
        <ele>14.0764</ele>
        <time>2012-03-21T16:05:03Z</time>
      </trkpt>
      <trkpt lat="59.9751494" lon="17.7379458">
        <ele>13.5958</ele>
        <time>2012-03-21T16:05:09Z</time>
      </trkpt>
      <trkpt lat="59.9752318" lon="17.7380826">
        <ele>14.557</ele>
        <time>2012-03-21T16:05:16Z</time>
      </trkpt>
      <trkpt lat="59.9752458" lon="17.7380997">
        <ele>14.557</ele>
        <time>2012-03-21T16:05:17Z</time>
      </trkpt>
      <trkpt lat="59.9752836" lon="17.7382129">
        <ele>15.5184</ele>
        <time>2012-03-21T16:05:22Z</time>
      </trkpt>
      <trkpt lat="59.9752836" lon="17.7382655">
        <ele>15.5184</ele>
        <time>2012-03-21T16:05:24Z</time>
      </trkpt>
      <trkpt lat="59.9753862" lon="17.7383974">
        <ele>17.9218</ele>
        <time>2012-03-21T16:05:31Z</time>
      </trkpt>
      <trkpt lat="59.9754398" lon="17.7384184">
        <ele>18.8831</ele>
        <time>2012-03-21T16:05:33Z</time>
      </trkpt>
      <trkpt lat="59.9755274" lon="17.7385571">
        <ele>19.3638</ele>
        <time>2012-03-21T16:05:40Z</time>
      </trkpt>
      <trkpt lat="59.9755545" lon="17.7386152">
        <ele>18.4023</ele>
        <time>2012-03-21T16:05:43Z</time>
      </trkpt>
      <trkpt lat="59.9756217" lon="17.7386983">
        <ele>19.3638</ele>
        <time>2012-03-21T16:05:48Z</time>
      </trkpt>
      <trkpt lat="59.9756675" lon="17.7387494">
        <ele>20.325</ele>
        <time>2012-03-21T16:05:51Z</time>
      </trkpt>
      <trkpt lat="59.9756923" lon="17.7387859">
        <ele>20.8057</ele>
        <time>2012-03-21T16:05:53Z</time>
      </trkpt>
      <trkpt lat="59.9757379" lon="17.7388692">
        <ele>21.2864</ele>
        <time>2012-03-21T16:05:57Z</time>
      </trkpt>
      <trkpt lat="59.9758347" lon="17.7389902">
        <ele>23.209</ele>
        <time>2012-03-21T16:06:04Z</time>
      </trkpt>
      <trkpt lat="59.9758787" lon="17.7390632">
        <ele>23.209</ele>
        <time>2012-03-21T16:06:08Z</time>
      </trkpt>
      <trkpt lat="59.9759097" lon="17.7391476">
        <ele>19.3638</ele>
        <time>2012-03-21T16:06:13Z</time>
      </trkpt>
      <trkpt lat="59.9759671" lon="17.7392451">
        <ele>18.8831</ele>
        <time>2012-03-21T16:06:18Z</time>
      </trkpt>
      <trkpt lat="59.9760219" lon="17.7393144">
        <ele>17.9218</ele>
        <time>2012-03-21T16:06:22Z</time>
      </trkpt>
      <trkpt lat="59.9760622" lon="17.7393691">
        <ele>17.9218</ele>
        <time>2012-03-21T16:06:25Z</time>
      </trkpt>
      <trkpt lat="59.9761391" lon="17.7395548">
        <ele>20.325</ele>
        <time>2012-03-21T16:06:34Z</time>
      </trkpt>
      <trkpt lat="59.9761637" lon="17.7395974">
        <ele>21.2864</ele>
        <time>2012-03-21T16:06:36Z</time>
      </trkpt>
      <trkpt lat="59.9762025" lon="17.7396821">
        <ele>22.2476</ele>
        <time>2012-03-21T16:06:40Z</time>
      </trkpt>
      <trkpt lat="59.9762968" lon="17.7397604">
        <ele>25.1317</ele>
        <time>2012-03-21T16:06:46Z</time>
      </trkpt>
      <trkpt lat="59.9763128" lon="17.7397665">
        <ele>25.6123</ele>
        <time>2012-03-21T16:06:47Z</time>
      </trkpt>
      <trkpt lat="59.9763606" lon="17.7397584">
        <ele>26.0929</ele>
        <time>2012-03-21T16:06:52Z</time>
      </trkpt>
      <trkpt lat="59.9764511" lon="17.7395853">
        <ele>28.0155</ele>
        <time>2012-03-21T16:07:00Z</time>
      </trkpt>
      <trkpt lat="59.9765263" lon="17.7394667">
        <ele>28.4962</ele>
        <time>2012-03-21T16:07:07Z</time>
      </trkpt>
      <trkpt lat="59.9765489" lon="17.7394411">
        <ele>28.4962</ele>
        <time>2012-03-21T16:07:09Z</time>
      </trkpt>
      <trkpt lat="59.9766347" lon="17.7393605">
        <ele>28.0155</ele>
        <time>2012-03-21T16:07:17Z</time>
      </trkpt>
      <trkpt lat="59.9767216" lon="17.7392927">
        <ele>27.5349</ele>
        <time>2012-03-21T16:07:24Z</time>
      </trkpt>
      <trkpt lat="59.9767662" lon="17.7392642">
        <ele>27.5349</ele>
        <time>2012-03-21T16:07:28Z</time>
      </trkpt>
      <trkpt lat="59.9768258" lon="17.7392407">
        <ele>28.0155</ele>
        <time>2012-03-21T16:07:32Z</time>
      </trkpt>
      <trkpt lat="59.9768664" lon="17.7392264">
        <ele>28.0155</ele>
        <time>2012-03-21T16:07:35Z</time>
      </trkpt>
      <trkpt lat="59.9769982" lon="17.7391956">
        <ele>28.4962</ele>
        <time>2012-03-21T16:07:43Z</time>
      </trkpt>
      <trkpt lat="59.9770521" lon="17.7391635">
        <ele>29.4575</ele>
        <time>2012-03-21T16:07:46Z</time>
      </trkpt>
      <trkpt lat="59.9771518" lon="17.7391249">
        <ele>29.4575</ele>
        <time>2012-03-21T16:07:52Z</time>
      </trkpt>
      <trkpt lat="59.977219" lon="17.7390839">
        <ele>28.9769</ele>
        <time>2012-03-21T16:07:57Z</time>
      </trkpt>
      <trkpt lat="59.9773129" lon="17.7390296">
        <ele>28.4962</ele>
        <time>2012-03-21T16:08:04Z</time>
      </trkpt>
      <trkpt lat="59.9774" lon="17.7389631">
        <ele>28.0155</ele>
        <time>2012-03-21T16:08:11Z</time>
      </trkpt>
      <trkpt lat="59.9774873" lon="17.7389428">
        <ele>28.0155</ele>
        <time>2012-03-21T16:08:17Z</time>
      </trkpt>
      <trkpt lat="59.9775794" lon="17.7389244">
        <ele>28.9769</ele>
        <time>2012-03-21T16:08:22Z</time>
      </trkpt>
      <trkpt lat="59.9776918" lon="17.7389311">
        <ele>32.8223</ele>
        <time>2012-03-21T16:08:27Z</time>
      </trkpt>
      <trkpt lat="59.977771" lon="17.7389533">
        <ele>35.2255</ele>
        <time>2012-03-21T16:08:31Z</time>
      </trkpt>
      <trkpt lat="59.9778864" lon="17.7389987">
        <ele>37.1481</ele>
        <time>2012-03-21T16:08:38Z</time>
      </trkpt>
      <trkpt lat="59.9779487" lon="17.7390034">
        <ele>38.5901</ele>
        <time>2012-03-21T16:08:41Z</time>
      </trkpt>
      <trkpt lat="59.9780255" lon="17.7390408">
        <ele>39.0707</ele>
        <time>2012-03-21T16:08:46Z</time>
      </trkpt>
      <trkpt lat="59.978101" lon="17.7390802">
        <ele>40.0321</ele>
        <time>2012-03-21T16:08:50Z</time>
      </trkpt>
      <trkpt lat="59.9782053" lon="17.7391088">
        <ele>39.0707</ele>
        <time>2012-03-21T16:08:57Z</time>
      </trkpt>
      <trkpt lat="59.9782985" lon="17.7391373">
        <ele>38.5901</ele>
        <time>2012-03-21T16:09:03Z</time>
      </trkpt>
      <trkpt lat="59.978355" lon="17.7391741">
        <ele>36.1868</ele>
        <time>2012-03-21T16:09:09Z</time>
      </trkpt>
      <trkpt lat="59.9784156" lon="17.7391969">
        <ele>33.3029</ele>
        <time>2012-03-21T16:09:14Z</time>
      </trkpt>
      <trkpt lat="59.9784834" lon="17.7392274">
        <ele>31.8607</ele>
        <time>2012-03-21T16:09:19Z</time>
      </trkpt>
      <trkpt lat="59.9785697" lon="17.7392683">
        <ele>29.9381</ele>
        <time>2012-03-21T16:09:24Z</time>
      </trkpt>
      <trkpt lat="59.9787086" lon="17.7392495">
        <ele>31.8607</ele>
        <time>2012-03-21T16:09:30Z</time>
      </trkpt>
      <trkpt lat="59.9788007" lon="17.7392492">
        <ele>28.9769</ele>
        <time>2012-03-21T16:09:35Z</time>
      </trkpt>
      <trkpt lat="59.9789128" lon="17.7392792">
        <ele>31.3801</ele>
        <time>2012-03-21T16:09:41Z</time>
      </trkpt>
      <trkpt lat="59.9789835" lon="17.7392812">
        <ele>34.7449</ele>
        <time>2012-03-21T16:09:44Z</time>
      </trkpt>
      <trkpt lat="59.9790507" lon="17.7393942">
        <ele>37.6287</ele>
        <time>2012-03-21T16:09:50Z</time>
      </trkpt>
      <trkpt lat="59.9789861" lon="17.7395308">
        <ele>32.3416</ele>
        <time>2012-03-21T16:09:54Z</time>
      </trkpt>
      <trkpt lat="59.9789693" lon="17.7396516">
        <ele>31.8607</ele>
        <time>2012-03-21T16:09:58Z</time>
      </trkpt>
      <trkpt lat="59.9789817" lon="17.7397396">
        <ele>32.3416</ele>
        <time>2012-03-21T16:10:02Z</time>
      </trkpt>
      <trkpt lat="59.9790068" lon="17.7398302">
        <ele>33.7834</ele>
        <time>2012-03-21T16:10:06Z</time>
      </trkpt>
      <trkpt lat="59.9790022" lon="17.7399525">
        <ele>33.7834</ele>
        <time>2012-03-21T16:10:10Z</time>
      </trkpt>
    </trkseg>
  </trk>
</gpx>